<?xml version="1.0" encoding="UTF-8" standalone="no" ?>
<gpx xmlns="http://www.topografix.com/GPX/1/1" xmlns:xsi="http://www.w3.org/2001/XMLSchema-instance" xsi:schemaLocation="http://www.topografix.com/GPX/1/1 http://www.topografix.com/GPX/1/1/gpx.xsd" version="1.1" creator="VisuGPX - https://www.visugpx.com">
  <metadata>
    <name>Cardonnette: 15 JUIN 2022 13:59</name>
  </metadata>
  <trk>
    <name><![CDATA[Cardonnette: 15 JUIN 2022 13:59]]></name>
    <trkseg>
      <trkpt lat="49.95136" lon="2.35835">
        <ele>98.19</ele>
        <time>2022-06-15T11:59:33Z</time>
      </trkpt>
      <trkpt lat="49.95156" lon="2.35849">
        <ele>109.25</ele>
        <time>2022-06-15T11:59:46Z</time>
      </trkpt>
      <trkpt lat="49.95162" lon="2.35842">
        <ele>105.4</ele>
        <time>2022-06-15T11:59:59Z</time>
      </trkpt>
      <trkpt lat="49.95168" lon="2.3584">
        <ele>112.13</ele>
        <time>2022-06-15T12:00:18Z</time>
      </trkpt>
      <trkpt lat="49.95154" lon="2.35845">
        <ele>99.15</ele>
        <time>2022-06-15T12:00:28Z</time>
      </trkpt>
      <trkpt lat="49.95157" lon="2.35834">
        <ele>91.94</ele>
        <time>2022-06-15T12:00:44Z</time>
      </trkpt>
      <trkpt lat="49.95156" lon="2.35837">
        <ele>88.1</ele>
        <time>2022-06-15T12:01:04Z</time>
      </trkpt>
      <trkpt lat="49.95155" lon="2.35838">
        <ele>89.54</ele>
        <time>2022-06-15T12:01:20Z</time>
      </trkpt>
      <trkpt lat="49.95155" lon="2.35837">
        <ele>89.54</ele>
        <time>2022-06-15T12:01:34Z</time>
      </trkpt>
      <trkpt lat="49.95156" lon="2.35837">
        <ele>90.02</ele>
        <time>2022-06-15T12:01:55Z</time>
      </trkpt>
      <trkpt lat="49.95156" lon="2.35837">
        <ele>90.98</ele>
        <time>2022-06-15T12:02:10Z</time>
      </trkpt>
      <trkpt lat="49.95155" lon="2.35837">
        <ele>90.5</ele>
        <time>2022-06-15T12:02:28Z</time>
      </trkpt>
      <trkpt lat="49.95155" lon="2.35837">
        <ele>90.02</ele>
        <time>2022-06-15T12:02:46Z</time>
      </trkpt>
      <trkpt lat="49.95154" lon="2.35837">
        <ele>90.02</ele>
        <time>2022-06-15T12:03:02Z</time>
      </trkpt>
      <trkpt lat="49.95154" lon="2.35837">
        <ele>89.54</ele>
        <time>2022-06-15T12:03:21Z</time>
      </trkpt>
      <trkpt lat="49.95153" lon="2.35837">
        <ele>89.06</ele>
        <time>2022-06-15T12:03:44Z</time>
      </trkpt>
      <trkpt lat="49.95154" lon="2.35836">
        <ele>88.58</ele>
        <time>2022-06-15T12:04:06Z</time>
      </trkpt>
      <trkpt lat="49.95153" lon="2.35836">
        <ele>87.62</ele>
        <time>2022-06-15T12:04:30Z</time>
      </trkpt>
      <trkpt lat="49.95153" lon="2.35836">
        <ele>87.62</ele>
        <time>2022-06-15T12:04:46Z</time>
      </trkpt>
      <trkpt lat="49.95154" lon="2.35837">
        <ele>88.1</ele>
        <time>2022-06-15T12:05:01Z</time>
      </trkpt>
      <trkpt lat="49.95155" lon="2.35838">
        <ele>88.1</ele>
        <time>2022-06-15T12:05:23Z</time>
      </trkpt>
      <trkpt lat="49.95155" lon="2.35837">
        <ele>88.1</ele>
        <time>2022-06-15T12:05:43Z</time>
      </trkpt>
      <trkpt lat="49.95154" lon="2.35837">
        <ele>87.14</ele>
        <time>2022-06-15T12:06:13Z</time>
      </trkpt>
      <trkpt lat="49.95152" lon="2.35836">
        <ele>87.14</ele>
        <time>2022-06-15T12:06:26Z</time>
      </trkpt>
      <trkpt lat="49.9515" lon="2.35834">
        <ele>86.66</ele>
        <time>2022-06-15T12:06:28Z</time>
      </trkpt>
      <trkpt lat="49.95139" lon="2.35825">
        <ele>85.69</ele>
        <time>2022-06-15T12:06:41Z</time>
      </trkpt>
      <trkpt lat="49.95127" lon="2.35822">
        <ele>84.25</ele>
        <time>2022-06-15T12:06:52Z</time>
      </trkpt>
      <trkpt lat="49.95116" lon="2.35815">
        <ele>82.81</ele>
        <time>2022-06-15T12:07:04Z</time>
      </trkpt>
      <trkpt lat="49.95111" lon="2.35809">
        <ele>82.81</ele>
        <time>2022-06-15T12:07:11Z</time>
      </trkpt>
      <trkpt lat="49.95107" lon="2.35809">
        <ele>81.37</ele>
        <time>2022-06-15T12:07:16Z</time>
      </trkpt>
      <trkpt lat="49.95103" lon="2.35813">
        <ele>81.85</ele>
        <time>2022-06-15T12:07:23Z</time>
      </trkpt>
      <trkpt lat="49.95099" lon="2.35838">
        <ele>83.29</ele>
        <time>2022-06-15T12:07:38Z</time>
      </trkpt>
      <trkpt lat="49.95096" lon="2.35862">
        <ele>84.25</ele>
        <time>2022-06-15T12:07:52Z</time>
      </trkpt>
      <trkpt lat="49.95095" lon="2.35885">
        <ele>85.69</ele>
        <time>2022-06-15T12:08:05Z</time>
      </trkpt>
      <trkpt lat="49.95093" lon="2.35899">
        <ele>86.66</ele>
        <time>2022-06-15T12:08:14Z</time>
      </trkpt>
      <trkpt lat="49.95092" lon="2.35905">
        <ele>89.06</ele>
        <time>2022-06-15T12:08:22Z</time>
      </trkpt>
      <trkpt lat="49.95092" lon="2.3591">
        <ele>89.54</ele>
        <time>2022-06-15T12:08:25Z</time>
      </trkpt>
      <trkpt lat="49.95087" lon="2.35937">
        <ele>90.98</ele>
        <time>2022-06-15T12:08:39Z</time>
      </trkpt>
      <trkpt lat="49.95084" lon="2.35961">
        <ele>89.06</ele>
        <time>2022-06-15T12:08:52Z</time>
      </trkpt>
      <trkpt lat="49.95082" lon="2.35985">
        <ele>89.06</ele>
        <time>2022-06-15T12:09:05Z</time>
      </trkpt>
      <trkpt lat="49.95091" lon="2.36006">
        <ele>89.06</ele>
        <time>2022-06-15T12:09:19Z</time>
      </trkpt>
      <trkpt lat="49.95103" lon="2.36023">
        <ele>88.58</ele>
        <time>2022-06-15T12:09:33Z</time>
      </trkpt>
      <trkpt lat="49.95115" lon="2.36043">
        <ele>89.06</ele>
        <time>2022-06-15T12:09:46Z</time>
      </trkpt>
      <trkpt lat="49.95123" lon="2.36061">
        <ele>89.54</ele>
        <time>2022-06-15T12:09:58Z</time>
      </trkpt>
      <trkpt lat="49.95132" lon="2.36087">
        <ele>89.54</ele>
        <time>2022-06-15T12:10:13Z</time>
      </trkpt>
      <trkpt lat="49.95137" lon="2.36108">
        <ele>87.62</ele>
        <time>2022-06-15T12:10:25Z</time>
      </trkpt>
      <trkpt lat="49.95144" lon="2.36131">
        <ele>88.1</ele>
        <time>2022-06-15T12:10:38Z</time>
      </trkpt>
      <trkpt lat="49.95151" lon="2.36154">
        <ele>89.06</ele>
        <time>2022-06-15T12:10:51Z</time>
      </trkpt>
      <trkpt lat="49.95158" lon="2.36178">
        <ele>89.54</ele>
        <time>2022-06-15T12:11:04Z</time>
      </trkpt>
      <trkpt lat="49.95164" lon="2.362">
        <ele>90.02</ele>
        <time>2022-06-15T12:11:16Z</time>
      </trkpt>
      <trkpt lat="49.9517" lon="2.36224">
        <ele>89.06</ele>
        <time>2022-06-15T12:11:29Z</time>
      </trkpt>
      <trkpt lat="49.95177" lon="2.36248">
        <ele>89.54</ele>
        <time>2022-06-15T12:11:42Z</time>
      </trkpt>
      <trkpt lat="49.95186" lon="2.36274">
        <ele>89.54</ele>
        <time>2022-06-15T12:11:57Z</time>
      </trkpt>
      <trkpt lat="49.95194" lon="2.363">
        <ele>89.06</ele>
        <time>2022-06-15T12:12:12Z</time>
      </trkpt>
      <trkpt lat="49.95202" lon="2.36323">
        <ele>89.54</ele>
        <time>2022-06-15T12:12:25Z</time>
      </trkpt>
      <trkpt lat="49.95209" lon="2.36352">
        <ele>89.54</ele>
        <time>2022-06-15T12:12:41Z</time>
      </trkpt>
      <trkpt lat="49.95217" lon="2.36377">
        <ele>91.46</ele>
        <time>2022-06-15T12:12:55Z</time>
      </trkpt>
      <trkpt lat="49.95225" lon="2.36404">
        <ele>91.94</ele>
        <time>2022-06-15T12:13:10Z</time>
      </trkpt>
      <trkpt lat="49.9523" lon="2.36426">
        <ele>91.46</ele>
        <time>2022-06-15T12:13:22Z</time>
      </trkpt>
      <trkpt lat="49.95233" lon="2.36439">
        <ele>91.94</ele>
        <time>2022-06-15T12:13:32Z</time>
      </trkpt>
      <trkpt lat="49.95235" lon="2.36448">
        <ele>92.42</ele>
        <time>2022-06-15T12:13:39Z</time>
      </trkpt>
      <trkpt lat="49.95239" lon="2.36468">
        <ele>92.9</ele>
        <time>2022-06-15T12:13:52Z</time>
      </trkpt>
      <trkpt lat="49.95242" lon="2.36492">
        <ele>91.46</ele>
        <time>2022-06-15T12:14:06Z</time>
      </trkpt>
      <trkpt lat="49.95247" lon="2.36519">
        <ele>91.46</ele>
        <time>2022-06-15T12:14:21Z</time>
      </trkpt>
      <trkpt lat="49.95252" lon="2.36543">
        <ele>92.42</ele>
        <time>2022-06-15T12:14:34Z</time>
      </trkpt>
      <trkpt lat="49.9526" lon="2.36568">
        <ele>93.87</ele>
        <time>2022-06-15T12:14:49Z</time>
      </trkpt>
      <trkpt lat="49.95264" lon="2.36581">
        <ele>94.35</ele>
        <time>2022-06-15T12:14:56Z</time>
      </trkpt>
      <trkpt lat="49.95268" lon="2.36591">
        <ele>95.31</ele>
        <time>2022-06-15T12:15:02Z</time>
      </trkpt>
      <trkpt lat="49.95271" lon="2.36598">
        <ele>95.79</ele>
        <time>2022-06-15T12:15:06Z</time>
      </trkpt>
      <trkpt lat="49.95275" lon="2.36612">
        <ele>95.79</ele>
        <time>2022-06-15T12:15:14Z</time>
      </trkpt>
      <trkpt lat="49.95281" lon="2.36625">
        <ele>96.75</ele>
        <time>2022-06-15T12:15:22Z</time>
      </trkpt>
      <trkpt lat="49.95284" lon="2.36633">
        <ele>97.23</ele>
        <time>2022-06-15T12:15:27Z</time>
      </trkpt>
      <trkpt lat="49.95298" lon="2.36649">
        <ele>98.19</ele>
        <time>2022-06-15T12:15:41Z</time>
      </trkpt>
      <trkpt lat="49.95315" lon="2.36652">
        <ele>98.19</ele>
        <time>2022-06-15T12:15:55Z</time>
      </trkpt>
      <trkpt lat="49.95333" lon="2.36654">
        <ele>97.71</ele>
        <time>2022-06-15T12:16:09Z</time>
      </trkpt>
      <trkpt lat="49.9535" lon="2.36656">
        <ele>97.71</ele>
        <time>2022-06-15T12:16:23Z</time>
      </trkpt>
      <trkpt lat="49.95365" lon="2.36658">
        <ele>97.71</ele>
        <time>2022-06-15T12:16:35Z</time>
      </trkpt>
      <trkpt lat="49.95383" lon="2.3666">
        <ele>97.23</ele>
        <time>2022-06-15T12:16:49Z</time>
      </trkpt>
      <trkpt lat="49.95402" lon="2.36661">
        <ele>97.71</ele>
        <time>2022-06-15T12:17:03Z</time>
      </trkpt>
      <trkpt lat="49.95421" lon="2.36662">
        <ele>97.23</ele>
        <time>2022-06-15T12:17:18Z</time>
      </trkpt>
      <trkpt lat="49.95437" lon="2.36664">
        <ele>98.67</ele>
        <time>2022-06-15T12:17:31Z</time>
      </trkpt>
      <trkpt lat="49.95458" lon="2.36665">
        <ele>99.15</ele>
        <time>2022-06-15T12:17:47Z</time>
      </trkpt>
      <trkpt lat="49.95478" lon="2.36668">
        <ele>100.6</ele>
        <time>2022-06-15T12:18:03Z</time>
      </trkpt>
      <trkpt lat="49.95496" lon="2.3667">
        <ele>101.08</ele>
        <time>2022-06-15T12:18:17Z</time>
      </trkpt>
      <trkpt lat="49.95516" lon="2.36672">
        <ele>102.52</ele>
        <time>2022-06-15T12:18:32Z</time>
      </trkpt>
      <trkpt lat="49.95534" lon="2.36673">
        <ele>103.48</ele>
        <time>2022-06-15T12:18:46Z</time>
      </trkpt>
      <trkpt lat="49.95553" lon="2.36675">
        <ele>104.92</ele>
        <time>2022-06-15T12:19:01Z</time>
      </trkpt>
      <trkpt lat="49.95568" lon="2.36675">
        <ele>106.36</ele>
        <time>2022-06-15T12:19:13Z</time>
      </trkpt>
      <trkpt lat="49.95587" lon="2.36676">
        <ele>108.29</ele>
        <time>2022-06-15T12:19:27Z</time>
      </trkpt>
      <trkpt lat="49.95605" lon="2.36677">
        <ele>108.77</ele>
        <time>2022-06-15T12:19:42Z</time>
      </trkpt>
      <trkpt lat="49.95622" lon="2.36679">
        <ele>109.73</ele>
        <time>2022-06-15T12:19:56Z</time>
      </trkpt>
      <trkpt lat="49.95632" lon="2.36681">
        <ele>109.73</ele>
        <time>2022-06-15T12:20:06Z</time>
      </trkpt>
      <trkpt lat="49.95636" lon="2.36709">
        <ele>110.21</ele>
        <time>2022-06-15T12:20:21Z</time>
      </trkpt>
      <trkpt lat="49.95639" lon="2.36738">
        <ele>111.17</ele>
        <time>2022-06-15T12:20:37Z</time>
      </trkpt>
      <trkpt lat="49.95643" lon="2.36768">
        <ele>111.65</ele>
        <time>2022-06-15T12:20:52Z</time>
      </trkpt>
      <trkpt lat="49.95645" lon="2.36797">
        <ele>111.65</ele>
        <time>2022-06-15T12:21:07Z</time>
      </trkpt>
      <trkpt lat="49.95649" lon="2.36827">
        <ele>111.65</ele>
        <time>2022-06-15T12:21:22Z</time>
      </trkpt>
      <trkpt lat="49.95652" lon="2.36861">
        <ele>111.17</ele>
        <time>2022-06-15T12:21:39Z</time>
      </trkpt>
      <trkpt lat="49.95655" lon="2.3689">
        <ele>111.65</ele>
        <time>2022-06-15T12:21:53Z</time>
      </trkpt>
      <trkpt lat="49.95658" lon="2.36916">
        <ele>112.13</ele>
        <time>2022-06-15T12:22:06Z</time>
      </trkpt>
      <trkpt lat="49.95661" lon="2.36944">
        <ele>113.09</ele>
        <time>2022-06-15T12:22:21Z</time>
      </trkpt>
      <trkpt lat="49.95664" lon="2.3697">
        <ele>114.05</ele>
        <time>2022-06-15T12:22:34Z</time>
      </trkpt>
      <trkpt lat="49.95667" lon="2.36997">
        <ele>114.53</ele>
        <time>2022-06-15T12:22:48Z</time>
      </trkpt>
      <trkpt lat="49.9567" lon="2.3703">
        <ele>114.53</ele>
        <time>2022-06-15T12:23:04Z</time>
      </trkpt>
      <trkpt lat="49.95672" lon="2.3706">
        <ele>115.01</ele>
        <time>2022-06-15T12:23:19Z</time>
      </trkpt>
      <trkpt lat="49.95675" lon="2.37096">
        <ele>114.53</ele>
        <time>2022-06-15T12:23:37Z</time>
      </trkpt>
      <trkpt lat="49.95677" lon="2.37124">
        <ele>114.53</ele>
        <time>2022-06-15T12:23:51Z</time>
      </trkpt>
      <trkpt lat="49.9568" lon="2.37154">
        <ele>114.05</ele>
        <time>2022-06-15T12:24:06Z</time>
      </trkpt>
      <trkpt lat="49.95688" lon="2.37183">
        <ele>114.05</ele>
        <time>2022-06-15T12:24:22Z</time>
      </trkpt>
      <trkpt lat="49.957" lon="2.37203">
        <ele>114.53</ele>
        <time>2022-06-15T12:24:36Z</time>
      </trkpt>
      <trkpt lat="49.95713" lon="2.37224">
        <ele>113.57</ele>
        <time>2022-06-15T12:24:51Z</time>
      </trkpt>
      <trkpt lat="49.95726" lon="2.37243">
        <ele>114.53</ele>
        <time>2022-06-15T12:25:04Z</time>
      </trkpt>
      <trkpt lat="49.9574" lon="2.37264">
        <ele>114.53</ele>
        <time>2022-06-15T12:25:19Z</time>
      </trkpt>
      <trkpt lat="49.95756" lon="2.37288">
        <ele>115.5</ele>
        <time>2022-06-15T12:25:36Z</time>
      </trkpt>
      <trkpt lat="49.95769" lon="2.3731">
        <ele>115.01</ele>
        <time>2022-06-15T12:25:51Z</time>
      </trkpt>
      <trkpt lat="49.95785" lon="2.3733">
        <ele>115.5</ele>
        <time>2022-06-15T12:26:06Z</time>
      </trkpt>
      <trkpt lat="49.95803" lon="2.37353">
        <ele>115.98</ele>
        <time>2022-06-15T12:26:23Z</time>
      </trkpt>
      <trkpt lat="49.95821" lon="2.37371">
        <ele>115.98</ele>
        <time>2022-06-15T12:26:39Z</time>
      </trkpt>
      <trkpt lat="49.95834" lon="2.37382">
        <ele>116.46</ele>
        <time>2022-06-15T12:26:51Z</time>
      </trkpt>
      <trkpt lat="49.95853" lon="2.37395">
        <ele>116.94</ele>
        <time>2022-06-15T12:27:06Z</time>
      </trkpt>
      <trkpt lat="49.9587" lon="2.37406">
        <ele>116.94</ele>
        <time>2022-06-15T12:27:20Z</time>
      </trkpt>
      <trkpt lat="49.95888" lon="2.37419">
        <ele>117.42</ele>
        <time>2022-06-15T12:27:35Z</time>
      </trkpt>
      <trkpt lat="49.95905" lon="2.3743">
        <ele>117.9</ele>
        <time>2022-06-15T12:27:49Z</time>
      </trkpt>
      <trkpt lat="49.95921" lon="2.37442">
        <ele>117.42</ele>
        <time>2022-06-15T12:28:02Z</time>
      </trkpt>
      <trkpt lat="49.95936" lon="2.37452">
        <ele>117.42</ele>
        <time>2022-06-15T12:28:14Z</time>
      </trkpt>
      <trkpt lat="49.95953" lon="2.37463">
        <ele>117.42</ele>
        <time>2022-06-15T12:28:28Z</time>
      </trkpt>
      <trkpt lat="49.95969" lon="2.37474">
        <ele>117.9</ele>
        <time>2022-06-15T12:28:42Z</time>
      </trkpt>
      <trkpt lat="49.95985" lon="2.37486">
        <ele>117.9</ele>
        <time>2022-06-15T12:28:56Z</time>
      </trkpt>
      <trkpt lat="49.96002" lon="2.37499">
        <ele>117.42</ele>
        <time>2022-06-15T12:29:11Z</time>
      </trkpt>
      <trkpt lat="49.96016" lon="2.37507">
        <ele>117.42</ele>
        <time>2022-06-15T12:29:23Z</time>
      </trkpt>
      <trkpt lat="49.96031" lon="2.37522">
        <ele>117.42</ele>
        <time>2022-06-15T12:29:37Z</time>
      </trkpt>
      <trkpt lat="49.96044" lon="2.37535">
        <ele>116.46</ele>
        <time>2022-06-15T12:29:50Z</time>
      </trkpt>
      <trkpt lat="49.96058" lon="2.37549">
        <ele>115.98</ele>
        <time>2022-06-15T12:30:04Z</time>
      </trkpt>
      <trkpt lat="49.96072" lon="2.37562">
        <ele>114.53</ele>
        <time>2022-06-15T12:30:17Z</time>
      </trkpt>
      <trkpt lat="49.96086" lon="2.37577">
        <ele>113.57</ele>
        <time>2022-06-15T12:30:31Z</time>
      </trkpt>
      <trkpt lat="49.96104" lon="2.37595">
        <ele>112.61</ele>
        <time>2022-06-15T12:30:47Z</time>
      </trkpt>
      <trkpt lat="49.96119" lon="2.3761">
        <ele>111.17</ele>
        <time>2022-06-15T12:31:01Z</time>
      </trkpt>
      <trkpt lat="49.96135" lon="2.37626">
        <ele>110.21</ele>
        <time>2022-06-15T12:31:15Z</time>
      </trkpt>
      <trkpt lat="49.96151" lon="2.37641">
        <ele>109.73</ele>
        <time>2022-06-15T12:31:30Z</time>
      </trkpt>
      <trkpt lat="49.96167" lon="2.37653">
        <ele>109.73</ele>
        <time>2022-06-15T12:31:44Z</time>
      </trkpt>
      <trkpt lat="49.96187" lon="2.37668">
        <ele>109.25</ele>
        <time>2022-06-15T12:32:00Z</time>
      </trkpt>
      <trkpt lat="49.96206" lon="2.37683">
        <ele>108.77</ele>
        <time>2022-06-15T12:32:16Z</time>
      </trkpt>
      <trkpt lat="49.96224" lon="2.37698">
        <ele>108.77</ele>
        <time>2022-06-15T12:32:32Z</time>
      </trkpt>
      <trkpt lat="49.96242" lon="2.3771">
        <ele>108.29</ele>
        <time>2022-06-15T12:32:46Z</time>
      </trkpt>
      <trkpt lat="49.96261" lon="2.37727">
        <ele>108.29</ele>
        <time>2022-06-15T12:33:02Z</time>
      </trkpt>
      <trkpt lat="49.9628" lon="2.37743">
        <ele>107.81</ele>
        <time>2022-06-15T12:33:18Z</time>
      </trkpt>
      <trkpt lat="49.963" lon="2.37757">
        <ele>107.81</ele>
        <time>2022-06-15T12:33:34Z</time>
      </trkpt>
      <trkpt lat="49.96319" lon="2.37774">
        <ele>107.32</ele>
        <time>2022-06-15T12:33:50Z</time>
      </trkpt>
      <trkpt lat="49.96334" lon="2.37786">
        <ele>106.36</ele>
        <time>2022-06-15T12:34:03Z</time>
      </trkpt>
      <trkpt lat="49.96351" lon="2.37799">
        <ele>105.88</ele>
        <time>2022-06-15T12:34:18Z</time>
      </trkpt>
      <trkpt lat="49.96365" lon="2.3781">
        <ele>105.88</ele>
        <time>2022-06-15T12:34:30Z</time>
      </trkpt>
      <trkpt lat="49.96372" lon="2.37816">
        <ele>105.88</ele>
        <time>2022-06-15T12:34:37Z</time>
      </trkpt>
      <trkpt lat="49.96378" lon="2.37821">
        <ele>105.88</ele>
        <time>2022-06-15T12:34:43Z</time>
      </trkpt>
      <trkpt lat="49.96378" lon="2.37847">
        <ele>105.4</ele>
        <time>2022-06-15T12:34:57Z</time>
      </trkpt>
      <trkpt lat="49.96378" lon="2.37872">
        <ele>104.44</ele>
        <time>2022-06-15T12:35:10Z</time>
      </trkpt>
      <trkpt lat="49.96378" lon="2.37907">
        <ele>103.96</ele>
        <time>2022-06-15T12:35:27Z</time>
      </trkpt>
      <trkpt lat="49.96377" lon="2.37933">
        <ele>103</ele>
        <time>2022-06-15T12:35:40Z</time>
      </trkpt>
      <trkpt lat="49.96377" lon="2.37965">
        <ele>102.04</ele>
        <time>2022-06-15T12:35:56Z</time>
      </trkpt>
      <trkpt lat="49.96381" lon="2.37995">
        <ele>100.6</ele>
        <time>2022-06-15T12:36:11Z</time>
      </trkpt>
      <trkpt lat="49.96386" lon="2.3802">
        <ele>99.63</ele>
        <time>2022-06-15T12:36:24Z</time>
      </trkpt>
      <trkpt lat="49.96391" lon="2.38047">
        <ele>98.67</ele>
        <time>2022-06-15T12:36:38Z</time>
      </trkpt>
      <trkpt lat="49.96396" lon="2.38072">
        <ele>97.71</ele>
        <time>2022-06-15T12:36:51Z</time>
      </trkpt>
      <trkpt lat="49.96399" lon="2.38098">
        <ele>97.71</ele>
        <time>2022-06-15T12:37:04Z</time>
      </trkpt>
      <trkpt lat="49.96402" lon="2.38123">
        <ele>97.23</ele>
        <time>2022-06-15T12:37:18Z</time>
      </trkpt>
      <trkpt lat="49.96401" lon="2.38159">
        <ele>95.79</ele>
        <time>2022-06-15T12:37:35Z</time>
      </trkpt>
      <trkpt lat="49.96397" lon="2.38192">
        <ele>94.35</ele>
        <time>2022-06-15T12:37:52Z</time>
      </trkpt>
      <trkpt lat="49.96392" lon="2.38218">
        <ele>93.39</ele>
        <time>2022-06-15T12:38:06Z</time>
      </trkpt>
      <trkpt lat="49.9639" lon="2.38239">
        <ele>92.42</ele>
        <time>2022-06-15T12:38:18Z</time>
      </trkpt>
      <trkpt lat="49.96386" lon="2.38267">
        <ele>91.46</ele>
        <time>2022-06-15T12:38:32Z</time>
      </trkpt>
      <trkpt lat="49.96382" lon="2.38302">
        <ele>89.54</ele>
        <time>2022-06-15T12:38:48Z</time>
      </trkpt>
      <trkpt lat="49.96378" lon="2.38337">
        <ele>87.62</ele>
        <time>2022-06-15T12:39:05Z</time>
      </trkpt>
      <trkpt lat="49.96374" lon="2.38368">
        <ele>86.66</ele>
        <time>2022-06-15T12:39:20Z</time>
      </trkpt>
      <trkpt lat="49.9637" lon="2.38406">
        <ele>86.18</ele>
        <time>2022-06-15T12:39:38Z</time>
      </trkpt>
      <trkpt lat="49.96363" lon="2.3844">
        <ele>84.73</ele>
        <time>2022-06-15T12:39:54Z</time>
      </trkpt>
      <trkpt lat="49.96351" lon="2.38468">
        <ele>83.29</ele>
        <time>2022-06-15T12:40:10Z</time>
      </trkpt>
      <trkpt lat="49.96336" lon="2.3849">
        <ele>83.29</ele>
        <time>2022-06-15T12:40:25Z</time>
      </trkpt>
      <trkpt lat="49.96318" lon="2.38519">
        <ele>82.33</ele>
        <time>2022-06-15T12:40:44Z</time>
      </trkpt>
      <trkpt lat="49.96303" lon="2.38542">
        <ele>81.85</ele>
        <time>2022-06-15T12:41:00Z</time>
      </trkpt>
      <trkpt lat="49.9629" lon="2.38566">
        <ele>81.85</ele>
        <time>2022-06-15T12:41:15Z</time>
      </trkpt>
      <trkpt lat="49.96279" lon="2.38589">
        <ele>81.37</ele>
        <time>2022-06-15T12:41:29Z</time>
      </trkpt>
      <trkpt lat="49.96268" lon="2.38617">
        <ele>80.89</ele>
        <time>2022-06-15T12:41:46Z</time>
      </trkpt>
      <trkpt lat="49.96259" lon="2.38644">
        <ele>80.89</ele>
        <time>2022-06-15T12:42:01Z</time>
      </trkpt>
      <trkpt lat="49.96252" lon="2.38669">
        <ele>79.93</ele>
        <time>2022-06-15T12:42:16Z</time>
      </trkpt>
      <trkpt lat="49.96252" lon="2.38667">
        <ele>79.45</ele>
        <time>2022-06-15T12:42:22Z</time>
      </trkpt>
      <trkpt lat="49.96251" lon="2.38667">
        <ele>79.45</ele>
        <time>2022-06-15T12:42:35Z</time>
      </trkpt>
      <trkpt lat="49.96251" lon="2.38666">
        <ele>79.45</ele>
        <time>2022-06-15T12:42:51Z</time>
      </trkpt>
      <trkpt lat="49.9625" lon="2.38666">
        <ele>79.93</ele>
        <time>2022-06-15T12:43:06Z</time>
      </trkpt>
      <trkpt lat="49.9625" lon="2.38666">
        <ele>79.93</ele>
        <time>2022-06-15T12:43:26Z</time>
      </trkpt>
      <trkpt lat="49.96249" lon="2.38666">
        <ele>80.41</ele>
        <time>2022-06-15T12:43:37Z</time>
      </trkpt>
      <trkpt lat="49.9625" lon="2.38667">
        <ele>80.41</ele>
        <time>2022-06-15T12:43:52Z</time>
      </trkpt>
      <trkpt lat="49.9625" lon="2.38667">
        <ele>79.93</ele>
        <time>2022-06-15T12:44:04Z</time>
      </trkpt>
      <trkpt lat="49.9625" lon="2.38667">
        <ele>79.45</ele>
        <time>2022-06-15T12:44:26Z</time>
      </trkpt>
      <trkpt lat="49.9625" lon="2.38667">
        <ele>79.93</ele>
        <time>2022-06-15T12:44:47Z</time>
      </trkpt>
      <trkpt lat="49.96249" lon="2.38678">
        <ele>79.45</ele>
        <time>2022-06-15T12:45:01Z</time>
      </trkpt>
      <trkpt lat="49.96248" lon="2.38683">
        <ele>78.97</ele>
        <time>2022-06-15T12:45:04Z</time>
      </trkpt>
      <trkpt lat="49.96247" lon="2.38686">
        <ele>78.48</ele>
        <time>2022-06-15T12:45:06Z</time>
      </trkpt>
      <trkpt lat="49.96242" lon="2.38705">
        <ele>75.6</ele>
        <time>2022-06-15T12:45:16Z</time>
      </trkpt>
      <trkpt lat="49.96241" lon="2.38708">
        <ele>74.64</ele>
        <time>2022-06-15T12:45:18Z</time>
      </trkpt>
      <trkpt lat="49.96243" lon="2.38732">
        <ele>77.04</ele>
        <time>2022-06-15T12:45:31Z</time>
      </trkpt>
      <trkpt lat="49.96244" lon="2.38736">
        <ele>78.48</ele>
        <time>2022-06-15T12:45:34Z</time>
      </trkpt>
      <trkpt lat="49.96253" lon="2.38755">
        <ele>80.89</ele>
        <time>2022-06-15T12:45:48Z</time>
      </trkpt>
      <trkpt lat="49.96258" lon="2.38766">
        <ele>80.89</ele>
        <time>2022-06-15T12:45:58Z</time>
      </trkpt>
      <trkpt lat="49.96266" lon="2.38785">
        <ele>80.41</ele>
        <time>2022-06-15T12:46:10Z</time>
      </trkpt>
      <trkpt lat="49.96275" lon="2.3881">
        <ele>80.41</ele>
        <time>2022-06-15T12:46:24Z</time>
      </trkpt>
      <trkpt lat="49.96276" lon="2.38811">
        <ele>80.41</ele>
        <time>2022-06-15T12:46:25Z</time>
      </trkpt>
      <trkpt lat="49.96278" lon="2.38818">
        <ele>80.41</ele>
        <time>2022-06-15T12:46:29Z</time>
      </trkpt>
      <trkpt lat="49.9628" lon="2.38826">
        <ele>80.41</ele>
        <time>2022-06-15T12:46:33Z</time>
      </trkpt>
      <trkpt lat="49.96281" lon="2.38833">
        <ele>79.93</ele>
        <time>2022-06-15T12:46:37Z</time>
      </trkpt>
      <trkpt lat="49.96287" lon="2.3886">
        <ele>78.97</ele>
        <time>2022-06-15T12:46:52Z</time>
      </trkpt>
      <trkpt lat="49.96289" lon="2.38873">
        <ele>79.45</ele>
        <time>2022-06-15T12:47:05Z</time>
      </trkpt>
      <trkpt lat="49.96295" lon="2.38903">
        <ele>79.45</ele>
        <time>2022-06-15T12:47:20Z</time>
      </trkpt>
      <trkpt lat="49.96302" lon="2.38937">
        <ele>79.45</ele>
        <time>2022-06-15T12:47:37Z</time>
      </trkpt>
      <trkpt lat="49.96303" lon="2.38942">
        <ele>79.45</ele>
        <time>2022-06-15T12:47:40Z</time>
      </trkpt>
      <trkpt lat="49.96305" lon="2.38952">
        <ele>79.93</ele>
        <time>2022-06-15T12:47:50Z</time>
      </trkpt>
      <trkpt lat="49.963" lon="2.3897">
        <ele>79.93</ele>
        <time>2022-06-15T12:47:58Z</time>
      </trkpt>
      <trkpt lat="49.96289" lon="2.38989">
        <ele>78</ele>
        <time>2022-06-15T12:48:10Z</time>
      </trkpt>
      <trkpt lat="49.96276" lon="2.39018">
        <ele>74.64</ele>
        <time>2022-06-15T12:48:26Z</time>
      </trkpt>
      <trkpt lat="49.96263" lon="2.39056">
        <ele>77.04</ele>
        <time>2022-06-15T12:48:44Z</time>
      </trkpt>
      <trkpt lat="49.9625" lon="2.39089">
        <ele>77.04</ele>
        <time>2022-06-15T12:49:01Z</time>
      </trkpt>
      <trkpt lat="49.96239" lon="2.3912">
        <ele>77.04</ele>
        <time>2022-06-15T12:49:17Z</time>
      </trkpt>
      <trkpt lat="49.96224" lon="2.3916">
        <ele>75.12</ele>
        <time>2022-06-15T12:49:37Z</time>
      </trkpt>
      <trkpt lat="49.96213" lon="2.39184">
        <ele>74.16</ele>
        <time>2022-06-15T12:49:50Z</time>
      </trkpt>
      <trkpt lat="49.962" lon="2.39221">
        <ele>74.64</ele>
        <time>2022-06-15T12:50:09Z</time>
      </trkpt>
      <trkpt lat="49.96188" lon="2.39254">
        <ele>74.16</ele>
        <time>2022-06-15T12:50:27Z</time>
      </trkpt>
      <trkpt lat="49.96176" lon="2.39288">
        <ele>74.16</ele>
        <time>2022-06-15T12:50:45Z</time>
      </trkpt>
      <trkpt lat="49.96166" lon="2.39315">
        <ele>73.68</ele>
        <time>2022-06-15T12:51:00Z</time>
      </trkpt>
      <trkpt lat="49.96158" lon="2.39336">
        <ele>73.68</ele>
        <time>2022-06-15T12:51:12Z</time>
      </trkpt>
      <trkpt lat="49.96149" lon="2.3936">
        <ele>74.16</ele>
        <time>2022-06-15T12:51:25Z</time>
      </trkpt>
      <trkpt lat="49.96137" lon="2.39393">
        <ele>74.16</ele>
        <time>2022-06-15T12:51:42Z</time>
      </trkpt>
      <trkpt lat="49.96125" lon="2.39423">
        <ele>74.16</ele>
        <time>2022-06-15T12:51:59Z</time>
      </trkpt>
      <trkpt lat="49.96115" lon="2.39452">
        <ele>74.64</ele>
        <time>2022-06-15T12:52:15Z</time>
      </trkpt>
      <trkpt lat="49.96103" lon="2.39483">
        <ele>74.16</ele>
        <time>2022-06-15T12:52:32Z</time>
      </trkpt>
      <trkpt lat="49.9609" lon="2.39518">
        <ele>73.68</ele>
        <time>2022-06-15T12:52:51Z</time>
      </trkpt>
      <trkpt lat="49.96077" lon="2.39549">
        <ele>73.2</ele>
        <time>2022-06-15T12:53:08Z</time>
      </trkpt>
      <trkpt lat="49.96064" lon="2.3958">
        <ele>72.24</ele>
        <time>2022-06-15T12:53:25Z</time>
      </trkpt>
      <trkpt lat="49.96054" lon="2.39612">
        <ele>72.24</ele>
        <time>2022-06-15T12:53:42Z</time>
      </trkpt>
      <trkpt lat="49.96041" lon="2.3965">
        <ele>72.24</ele>
        <time>2022-06-15T12:54:02Z</time>
      </trkpt>
      <trkpt lat="49.96029" lon="2.39681">
        <ele>71.76</ele>
        <time>2022-06-15T12:54:19Z</time>
      </trkpt>
      <trkpt lat="49.96021" lon="2.39706">
        <ele>72.24</ele>
        <time>2022-06-15T12:54:33Z</time>
      </trkpt>
      <trkpt lat="49.96008" lon="2.39737">
        <ele>72.72</ele>
        <time>2022-06-15T12:54:50Z</time>
      </trkpt>
      <trkpt lat="49.96" lon="2.39759">
        <ele>72.72</ele>
        <time>2022-06-15T12:55:03Z</time>
      </trkpt>
      <trkpt lat="49.95991" lon="2.39783">
        <ele>72.72</ele>
        <time>2022-06-15T12:55:16Z</time>
      </trkpt>
      <trkpt lat="49.95979" lon="2.39814">
        <ele>73.2</ele>
        <time>2022-06-15T12:55:33Z</time>
      </trkpt>
      <trkpt lat="49.95967" lon="2.39846">
        <ele>74.16</ele>
        <time>2022-06-15T12:55:50Z</time>
      </trkpt>
      <trkpt lat="49.95957" lon="2.39876">
        <ele>74.16</ele>
        <time>2022-06-15T12:56:06Z</time>
      </trkpt>
      <trkpt lat="49.95944" lon="2.39912">
        <ele>76.08</ele>
        <time>2022-06-15T12:56:25Z</time>
      </trkpt>
      <trkpt lat="49.95932" lon="2.39947">
        <ele>76.56</ele>
        <time>2022-06-15T12:56:43Z</time>
      </trkpt>
      <trkpt lat="49.95921" lon="2.3998">
        <ele>77.04</ele>
        <time>2022-06-15T12:57:00Z</time>
      </trkpt>
      <trkpt lat="49.95912" lon="2.40009">
        <ele>76.56</ele>
        <time>2022-06-15T12:57:16Z</time>
      </trkpt>
      <trkpt lat="49.95904" lon="2.4004">
        <ele>77.04</ele>
        <time>2022-06-15T12:57:32Z</time>
      </trkpt>
      <trkpt lat="49.95909" lon="2.40061">
        <ele>78.48</ele>
        <time>2022-06-15T12:57:45Z</time>
      </trkpt>
      <trkpt lat="49.95921" lon="2.4008">
        <ele>79.93</ele>
        <time>2022-06-15T12:57:58Z</time>
      </trkpt>
      <trkpt lat="49.95939" lon="2.40101">
        <ele>80.41</ele>
        <time>2022-06-15T12:58:15Z</time>
      </trkpt>
      <trkpt lat="49.9596" lon="2.4012">
        <ele>79.93</ele>
        <time>2022-06-15T12:58:32Z</time>
      </trkpt>
      <trkpt lat="49.95975" lon="2.40137">
        <ele>80.41</ele>
        <time>2022-06-15T12:58:46Z</time>
      </trkpt>
      <trkpt lat="49.9599" lon="2.40158">
        <ele>81.85</ele>
        <time>2022-06-15T12:59:01Z</time>
      </trkpt>
      <trkpt lat="49.96" lon="2.4018">
        <ele>82.33</ele>
        <time>2022-06-15T12:59:15Z</time>
      </trkpt>
      <trkpt lat="49.96011" lon="2.40205">
        <ele>84.25</ele>
        <time>2022-06-15T12:59:30Z</time>
      </trkpt>
      <trkpt lat="49.96021" lon="2.40227">
        <ele>84.73</ele>
        <time>2022-06-15T12:59:43Z</time>
      </trkpt>
      <trkpt lat="49.96032" lon="2.40248">
        <ele>86.18</ele>
        <time>2022-06-15T12:59:57Z</time>
      </trkpt>
      <trkpt lat="49.96042" lon="2.4027">
        <ele>88.1</ele>
        <time>2022-06-15T13:00:10Z</time>
      </trkpt>
      <trkpt lat="49.96054" lon="2.40294">
        <ele>90.02</ele>
        <time>2022-06-15T13:00:25Z</time>
      </trkpt>
      <trkpt lat="49.96066" lon="2.40316">
        <ele>91.46</ele>
        <time>2022-06-15T13:00:40Z</time>
      </trkpt>
      <trkpt lat="49.96078" lon="2.40339">
        <ele>92.42</ele>
        <time>2022-06-15T13:00:55Z</time>
      </trkpt>
      <trkpt lat="49.96091" lon="2.40358">
        <ele>94.35</ele>
        <time>2022-06-15T13:01:09Z</time>
      </trkpt>
      <trkpt lat="49.96103" lon="2.40375">
        <ele>95.79</ele>
        <time>2022-06-15T13:01:22Z</time>
      </trkpt>
      <trkpt lat="49.96115" lon="2.40391">
        <ele>99.63</ele>
        <time>2022-06-15T13:01:34Z</time>
      </trkpt>
      <trkpt lat="49.96124" lon="2.40405">
        <ele>100.6</ele>
        <time>2022-06-15T13:01:47Z</time>
      </trkpt>
      <trkpt lat="49.96138" lon="2.40423">
        <ele>99.63</ele>
        <time>2022-06-15T13:02:02Z</time>
      </trkpt>
      <trkpt lat="49.96146" lon="2.40444">
        <ele>100.11</ele>
        <time>2022-06-15T13:02:17Z</time>
      </trkpt>
      <trkpt lat="49.96153" lon="2.40462">
        <ele>104.44</ele>
        <time>2022-06-15T13:02:30Z</time>
      </trkpt>
      <trkpt lat="49.96159" lon="2.40471">
        <ele>107.81</ele>
        <time>2022-06-15T13:02:36Z</time>
      </trkpt>
      <trkpt lat="49.96177" lon="2.4049">
        <ele>111.65</ele>
        <time>2022-06-15T13:02:52Z</time>
      </trkpt>
      <trkpt lat="49.96195" lon="2.40506">
        <ele>113.57</ele>
        <time>2022-06-15T13:03:07Z</time>
      </trkpt>
      <trkpt lat="49.96211" lon="2.4052">
        <ele>113.57</ele>
        <time>2022-06-15T13:03:21Z</time>
      </trkpt>
      <trkpt lat="49.96224" lon="2.40535">
        <ele>112.13</ele>
        <time>2022-06-15T13:03:34Z</time>
      </trkpt>
      <trkpt lat="49.96239" lon="2.40547">
        <ele>112.13</ele>
        <time>2022-06-15T13:03:47Z</time>
      </trkpt>
      <trkpt lat="49.96253" lon="2.40557">
        <ele>109.25</ele>
        <time>2022-06-15T13:03:59Z</time>
      </trkpt>
      <trkpt lat="49.9626" lon="2.40562">
        <ele>108.29</ele>
        <time>2022-06-15T13:04:10Z</time>
      </trkpt>
      <trkpt lat="49.96262" lon="2.40563">
        <ele>108.77</ele>
        <time>2022-06-15T13:04:26Z</time>
      </trkpt>
      <trkpt lat="49.96262" lon="2.40564">
        <ele>108.29</ele>
        <time>2022-06-15T13:04:40Z</time>
      </trkpt>
      <trkpt lat="49.96262" lon="2.40564">
        <ele>109.73</ele>
        <time>2022-06-15T13:04:56Z</time>
      </trkpt>
      <trkpt lat="49.96263" lon="2.40565">
        <ele>109.73</ele>
        <time>2022-06-15T13:05:08Z</time>
      </trkpt>
      <trkpt lat="49.96265" lon="2.40569">
        <ele>109.25</ele>
        <time>2022-06-15T13:05:24Z</time>
      </trkpt>
      <trkpt lat="49.96271" lon="2.40576">
        <ele>108.29</ele>
        <time>2022-06-15T13:05:34Z</time>
      </trkpt>
      <trkpt lat="49.96279" lon="2.40584">
        <ele>106.36</ele>
        <time>2022-06-15T13:05:45Z</time>
      </trkpt>
      <trkpt lat="49.96289" lon="2.40593">
        <ele>104.92</ele>
        <time>2022-06-15T13:05:57Z</time>
      </trkpt>
      <trkpt lat="49.963" lon="2.40601">
        <ele>104.92</ele>
        <time>2022-06-15T13:06:07Z</time>
      </trkpt>
      <trkpt lat="49.96314" lon="2.40611">
        <ele>104.92</ele>
        <time>2022-06-15T13:06:20Z</time>
      </trkpt>
      <trkpt lat="49.96318" lon="2.40615">
        <ele>105.4</ele>
        <time>2022-06-15T13:06:24Z</time>
      </trkpt>
      <trkpt lat="49.96316" lon="2.40646">
        <ele>108.29</ele>
        <time>2022-06-15T13:06:40Z</time>
      </trkpt>
      <trkpt lat="49.96311" lon="2.40678">
        <ele>108.77</ele>
        <time>2022-06-15T13:06:56Z</time>
      </trkpt>
      <trkpt lat="49.96307" lon="2.40705">
        <ele>109.73</ele>
        <time>2022-06-15T13:07:10Z</time>
      </trkpt>
      <trkpt lat="49.96304" lon="2.40732">
        <ele>110.69</ele>
        <time>2022-06-15T13:07:24Z</time>
      </trkpt>
      <trkpt lat="49.96302" lon="2.40755">
        <ele>111.65</ele>
        <time>2022-06-15T13:07:36Z</time>
      </trkpt>
      <trkpt lat="49.96297" lon="2.40788">
        <ele>113.09</ele>
        <time>2022-06-15T13:07:53Z</time>
      </trkpt>
      <trkpt lat="49.96292" lon="2.40818">
        <ele>113.57</ele>
        <time>2022-06-15T13:08:08Z</time>
      </trkpt>
      <trkpt lat="49.96286" lon="2.40848">
        <ele>113.57</ele>
        <time>2022-06-15T13:08:23Z</time>
      </trkpt>
      <trkpt lat="49.96282" lon="2.40875">
        <ele>113.09</ele>
        <time>2022-06-15T13:08:37Z</time>
      </trkpt>
      <trkpt lat="49.9628" lon="2.40899">
        <ele>113.09</ele>
        <time>2022-06-15T13:08:50Z</time>
      </trkpt>
      <trkpt lat="49.9628" lon="2.40902">
        <ele>113.57</ele>
        <time>2022-06-15T13:08:59Z</time>
      </trkpt>
      <trkpt lat="49.9628" lon="2.40903">
        <ele>113.57</ele>
        <time>2022-06-15T13:09:19Z</time>
      </trkpt>
      <trkpt lat="49.9628" lon="2.40904">
        <ele>114.05</ele>
        <time>2022-06-15T13:09:38Z</time>
      </trkpt>
      <trkpt lat="49.96279" lon="2.40904">
        <ele>115.01</ele>
        <time>2022-06-15T13:10:03Z</time>
      </trkpt>
      <trkpt lat="49.96279" lon="2.40904">
        <ele>114.53</ele>
        <time>2022-06-15T13:10:29Z</time>
      </trkpt>
      <trkpt lat="49.96279" lon="2.40903">
        <ele>114.05</ele>
        <time>2022-06-15T13:10:58Z</time>
      </trkpt>
      <trkpt lat="49.96282" lon="2.40908">
        <ele>113.57</ele>
        <time>2022-06-15T13:11:12Z</time>
      </trkpt>
      <trkpt lat="49.96283" lon="2.40912">
        <ele>112.61</ele>
        <time>2022-06-15T13:11:25Z</time>
      </trkpt>
      <trkpt lat="49.96285" lon="2.40911">
        <ele>112.61</ele>
        <time>2022-06-15T13:11:51Z</time>
      </trkpt>
      <trkpt lat="49.96286" lon="2.40911">
        <ele>112.13</ele>
        <time>2022-06-15T13:12:05Z</time>
      </trkpt>
      <trkpt lat="49.96285" lon="2.40913">
        <ele>112.13</ele>
        <time>2022-06-15T13:12:18Z</time>
      </trkpt>
      <trkpt lat="49.96285" lon="2.40914">
        <ele>112.61</ele>
        <time>2022-06-15T13:12:42Z</time>
      </trkpt>
      <trkpt lat="49.96285" lon="2.40917">
        <ele>110.69</ele>
        <time>2022-06-15T13:12:59Z</time>
      </trkpt>
      <trkpt lat="49.96282" lon="2.40929">
        <ele>108.29</ele>
        <time>2022-06-15T13:13:10Z</time>
      </trkpt>
      <trkpt lat="49.96278" lon="2.40941">
        <ele>107.32</ele>
        <time>2022-06-15T13:13:22Z</time>
      </trkpt>
      <trkpt lat="49.96275" lon="2.40949">
        <ele>106.36</ele>
        <time>2022-06-15T13:13:27Z</time>
      </trkpt>
      <trkpt lat="49.96271" lon="2.40972">
        <ele>102.04</ele>
        <time>2022-06-15T13:13:41Z</time>
      </trkpt>
      <trkpt lat="49.96268" lon="2.40993">
        <ele>99.63</ele>
        <time>2022-06-15T13:13:54Z</time>
      </trkpt>
      <trkpt lat="49.96264" lon="2.41">
        <ele>101.08</ele>
        <time>2022-06-15T13:14:06Z</time>
      </trkpt>
      <trkpt lat="49.96262" lon="2.41003">
        <ele>103.96</ele>
        <time>2022-06-15T13:14:26Z</time>
      </trkpt>
      <trkpt lat="49.96262" lon="2.41029">
        <ele>109.25</ele>
        <time>2022-06-15T13:14:39Z</time>
      </trkpt>
      <trkpt lat="49.96262" lon="2.4104">
        <ele>110.69</ele>
        <time>2022-06-15T13:14:43Z</time>
      </trkpt>
      <trkpt lat="49.9626" lon="2.41052">
        <ele>112.13</ele>
        <time>2022-06-15T13:14:48Z</time>
      </trkpt>
      <trkpt lat="49.96249" lon="2.41064">
        <ele>112.13</ele>
        <time>2022-06-15T13:15:00Z</time>
      </trkpt>
      <trkpt lat="49.96234" lon="2.41075">
        <ele>107.81</ele>
        <time>2022-06-15T13:15:14Z</time>
      </trkpt>
      <trkpt lat="49.96218" lon="2.41085">
        <ele>103.96</ele>
        <time>2022-06-15T13:15:26Z</time>
      </trkpt>
      <trkpt lat="49.96204" lon="2.41094">
        <ele>100.11</ele>
        <time>2022-06-15T13:15:39Z</time>
      </trkpt>
      <trkpt lat="49.9619" lon="2.41104">
        <ele>95.79</ele>
        <time>2022-06-15T13:15:51Z</time>
      </trkpt>
      <trkpt lat="49.96175" lon="2.41115">
        <ele>92.9</ele>
        <time>2022-06-15T13:16:05Z</time>
      </trkpt>
      <trkpt lat="49.96158" lon="2.41126">
        <ele>95.79</ele>
        <time>2022-06-15T13:16:17Z</time>
      </trkpt>
      <trkpt lat="49.96143" lon="2.41136">
        <ele>96.75</ele>
        <time>2022-06-15T13:16:30Z</time>
      </trkpt>
      <trkpt lat="49.96131" lon="2.41144">
        <ele>100.11</ele>
        <time>2022-06-15T13:16:38Z</time>
      </trkpt>
      <trkpt lat="49.96129" lon="2.41152">
        <ele>104.44</ele>
        <time>2022-06-15T13:16:43Z</time>
      </trkpt>
      <trkpt lat="49.96139" lon="2.41159">
        <ele>104.44</ele>
        <time>2022-06-15T13:16:54Z</time>
      </trkpt>
      <trkpt lat="49.96155" lon="2.41166">
        <ele>104.44</ele>
        <time>2022-06-15T13:17:08Z</time>
      </trkpt>
      <trkpt lat="49.96166" lon="2.41171">
        <ele>105.4</ele>
        <time>2022-06-15T13:17:19Z</time>
      </trkpt>
      <trkpt lat="49.96183" lon="2.41176">
        <ele>105.4</ele>
        <time>2022-06-15T13:17:33Z</time>
      </trkpt>
      <trkpt lat="49.96198" lon="2.41184">
        <ele>104.44</ele>
        <time>2022-06-15T13:17:45Z</time>
      </trkpt>
      <trkpt lat="49.96212" lon="2.4119">
        <ele>103</ele>
        <time>2022-06-15T13:17:57Z</time>
      </trkpt>
      <trkpt lat="49.96219" lon="2.41192">
        <ele>102.04</ele>
        <time>2022-06-15T13:18:03Z</time>
      </trkpt>
      <trkpt lat="49.96236" lon="2.41199">
        <ele>100.11</ele>
        <time>2022-06-15T13:18:18Z</time>
      </trkpt>
      <trkpt lat="49.96252" lon="2.41207">
        <ele>99.63</ele>
        <time>2022-06-15T13:18:30Z</time>
      </trkpt>
      <trkpt lat="49.96267" lon="2.41213">
        <ele>98.19</ele>
        <time>2022-06-15T13:18:42Z</time>
      </trkpt>
      <trkpt lat="49.96268" lon="2.41213">
        <ele>98.19</ele>
        <time>2022-06-15T13:18:43Z</time>
      </trkpt>
      <trkpt lat="49.96273" lon="2.41215">
        <ele>98.19</ele>
        <time>2022-06-15T13:18:47Z</time>
      </trkpt>
      <trkpt lat="49.96288" lon="2.41223">
        <ele>98.67</ele>
        <time>2022-06-15T13:18:59Z</time>
      </trkpt>
      <trkpt lat="49.96294" lon="2.41226">
        <ele>99.63</ele>
        <time>2022-06-15T13:19:04Z</time>
      </trkpt>
      <trkpt lat="49.96297" lon="2.41228">
        <ele>99.63</ele>
        <time>2022-06-15T13:19:07Z</time>
      </trkpt>
      <trkpt lat="49.96314" lon="2.41236">
        <ele>99.15</ele>
        <time>2022-06-15T13:19:21Z</time>
      </trkpt>
      <trkpt lat="49.96335" lon="2.41246">
        <ele>100.11</ele>
        <time>2022-06-15T13:19:36Z</time>
      </trkpt>
      <trkpt lat="49.96351" lon="2.41254">
        <ele>102.04</ele>
        <time>2022-06-15T13:19:49Z</time>
      </trkpt>
      <trkpt lat="49.96368" lon="2.41261">
        <ele>102.52</ele>
        <time>2022-06-15T13:20:02Z</time>
      </trkpt>
      <trkpt lat="49.96384" lon="2.4127">
        <ele>103</ele>
        <time>2022-06-15T13:20:15Z</time>
      </trkpt>
      <trkpt lat="49.964" lon="2.41276">
        <ele>103</ele>
        <time>2022-06-15T13:20:28Z</time>
      </trkpt>
      <trkpt lat="49.96413" lon="2.41283">
        <ele>103.96</ele>
        <time>2022-06-15T13:20:39Z</time>
      </trkpt>
      <trkpt lat="49.96428" lon="2.41289">
        <ele>103.48</ele>
        <time>2022-06-15T13:20:51Z</time>
      </trkpt>
      <trkpt lat="49.96441" lon="2.41296">
        <ele>104.44</ele>
        <time>2022-06-15T13:21:03Z</time>
      </trkpt>
      <trkpt lat="49.96451" lon="2.41302">
        <ele>104.92</ele>
        <time>2022-06-15T13:21:12Z</time>
      </trkpt>
      <trkpt lat="49.9647" lon="2.41312">
        <ele>107.81</ele>
        <time>2022-06-15T13:21:27Z</time>
      </trkpt>
      <trkpt lat="49.96486" lon="2.4132">
        <ele>110.21</ele>
        <time>2022-06-15T13:21:41Z</time>
      </trkpt>
      <trkpt lat="49.96499" lon="2.41304">
        <ele>112.13</ele>
        <time>2022-06-15T13:21:55Z</time>
      </trkpt>
      <trkpt lat="49.96507" lon="2.41281">
        <ele>111.17</ele>
        <time>2022-06-15T13:22:10Z</time>
      </trkpt>
      <trkpt lat="49.96513" lon="2.41259">
        <ele>111.17</ele>
        <time>2022-06-15T13:22:23Z</time>
      </trkpt>
      <trkpt lat="49.96521" lon="2.41236">
        <ele>110.21</ele>
        <time>2022-06-15T13:22:37Z</time>
      </trkpt>
      <trkpt lat="49.96528" lon="2.41218">
        <ele>107.81</ele>
        <time>2022-06-15T13:22:48Z</time>
      </trkpt>
      <trkpt lat="49.96532" lon="2.41203">
        <ele>105.4</ele>
        <time>2022-06-15T13:22:57Z</time>
      </trkpt>
      <trkpt lat="49.96533" lon="2.41193">
        <ele>104.92</ele>
        <time>2022-06-15T13:23:04Z</time>
      </trkpt>
      <trkpt lat="49.96542" lon="2.4117">
        <ele>104.44</ele>
        <time>2022-06-15T13:23:18Z</time>
      </trkpt>
      <trkpt lat="49.96556" lon="2.41147">
        <ele>105.88</ele>
        <time>2022-06-15T13:23:34Z</time>
      </trkpt>
      <trkpt lat="49.96568" lon="2.41125">
        <ele>106.36</ele>
        <time>2022-06-15T13:23:50Z</time>
      </trkpt>
      <trkpt lat="49.96575" lon="2.41111">
        <ele>107.32</ele>
        <time>2022-06-15T13:24:03Z</time>
      </trkpt>
      <trkpt lat="49.96586" lon="2.41097">
        <ele>107.81</ele>
        <time>2022-06-15T13:24:16Z</time>
      </trkpt>
      <trkpt lat="49.96595" lon="2.4109">
        <ele>108.77</ele>
        <time>2022-06-15T13:24:27Z</time>
      </trkpt>
      <trkpt lat="49.96612" lon="2.41078">
        <ele>109.73</ele>
        <time>2022-06-15T13:24:41Z</time>
      </trkpt>
      <trkpt lat="49.96635" lon="2.41061">
        <ele>111.17</ele>
        <time>2022-06-15T13:24:58Z</time>
      </trkpt>
      <trkpt lat="49.96651" lon="2.41045">
        <ele>111.17</ele>
        <time>2022-06-15T13:25:13Z</time>
      </trkpt>
      <trkpt lat="49.96666" lon="2.41027">
        <ele>112.13</ele>
        <time>2022-06-15T13:25:28Z</time>
      </trkpt>
      <trkpt lat="49.96674" lon="2.41019">
        <ele>112.13</ele>
        <time>2022-06-15T13:25:36Z</time>
      </trkpt>
      <trkpt lat="49.96685" lon="2.41007">
        <ele>110.21</ele>
        <time>2022-06-15T13:25:48Z</time>
      </trkpt>
      <trkpt lat="49.96702" lon="2.40994">
        <ele>109.73</ele>
        <time>2022-06-15T13:26:02Z</time>
      </trkpt>
      <trkpt lat="49.96706" lon="2.40992">
        <ele>110.21</ele>
        <time>2022-06-15T13:26:07Z</time>
      </trkpt>
      <trkpt lat="49.96713" lon="2.41007">
        <ele>108.29</ele>
        <time>2022-06-15T13:26:19Z</time>
      </trkpt>
      <trkpt lat="49.96721" lon="2.41018">
        <ele>107.81</ele>
        <time>2022-06-15T13:26:35Z</time>
      </trkpt>
      <trkpt lat="49.96725" lon="2.41019">
        <ele>107.81</ele>
        <time>2022-06-15T13:26:49Z</time>
      </trkpt>
      <trkpt lat="49.96726" lon="2.41021">
        <ele>108.77</ele>
        <time>2022-06-15T13:27:10Z</time>
      </trkpt>
      <trkpt lat="49.96728" lon="2.41021">
        <ele>110.21</ele>
        <time>2022-06-15T13:27:28Z</time>
      </trkpt>
      <trkpt lat="49.9673" lon="2.41021">
        <ele>111.17</ele>
        <time>2022-06-15T13:27:49Z</time>
      </trkpt>
      <trkpt lat="49.96732" lon="2.41021">
        <ele>111.65</ele>
        <time>2022-06-15T13:28:12Z</time>
      </trkpt>
      <trkpt lat="49.96735" lon="2.4102">
        <ele>111.17</ele>
        <time>2022-06-15T13:28:23Z</time>
      </trkpt>
      <trkpt lat="49.96734" lon="2.41021">
        <ele>109.73</ele>
        <time>2022-06-15T13:28:38Z</time>
      </trkpt>
      <trkpt lat="49.96734" lon="2.41021">
        <ele>109.25</ele>
        <time>2022-06-15T13:28:54Z</time>
      </trkpt>
      <trkpt lat="49.96735" lon="2.41021">
        <ele>108.77</ele>
        <time>2022-06-15T13:29:04Z</time>
      </trkpt>
      <trkpt lat="49.96738" lon="2.41016">
        <ele>109.73</ele>
        <time>2022-06-15T13:29:15Z</time>
      </trkpt>
      <trkpt lat="49.96751" lon="2.41031">
        <ele>107.81</ele>
        <time>2022-06-15T13:29:28Z</time>
      </trkpt>
      <trkpt lat="49.96765" lon="2.41047">
        <ele>107.81</ele>
        <time>2022-06-15T13:29:42Z</time>
      </trkpt>
      <trkpt lat="49.9678" lon="2.41051">
        <ele>106.84</ele>
        <time>2022-06-15T13:29:55Z</time>
      </trkpt>
      <trkpt lat="49.96797" lon="2.41038">
        <ele>104.92</ele>
        <time>2022-06-15T13:30:11Z</time>
      </trkpt>
      <trkpt lat="49.96812" lon="2.41027">
        <ele>104.44</ele>
        <time>2022-06-15T13:30:25Z</time>
      </trkpt>
      <trkpt lat="49.96828" lon="2.41011">
        <ele>102.52</ele>
        <time>2022-06-15T13:30:41Z</time>
      </trkpt>
      <trkpt lat="49.96849" lon="2.41002">
        <ele>103</ele>
        <time>2022-06-15T13:30:57Z</time>
      </trkpt>
      <trkpt lat="49.96866" lon="2.40993">
        <ele>101.56</ele>
        <time>2022-06-15T13:31:12Z</time>
      </trkpt>
      <trkpt lat="49.96881" lon="2.40984">
        <ele>98.67</ele>
        <time>2022-06-15T13:31:26Z</time>
      </trkpt>
      <trkpt lat="49.9689" lon="2.40974">
        <ele>97.71</ele>
        <time>2022-06-15T13:31:39Z</time>
      </trkpt>
      <trkpt lat="49.9691" lon="2.40961">
        <ele>96.27</ele>
        <time>2022-06-15T13:31:56Z</time>
      </trkpt>
      <trkpt lat="49.96918" lon="2.40958">
        <ele>95.79</ele>
        <time>2022-06-15T13:32:08Z</time>
      </trkpt>
      <trkpt lat="49.9692" lon="2.40959">
        <ele>95.79</ele>
        <time>2022-06-15T13:32:10Z</time>
      </trkpt>
      <trkpt lat="49.96939" lon="2.40969">
        <ele>94.35</ele>
        <time>2022-06-15T13:32:26Z</time>
      </trkpt>
      <trkpt lat="49.96951" lon="2.40976">
        <ele>92.9</ele>
        <time>2022-06-15T13:32:40Z</time>
      </trkpt>
      <trkpt lat="49.96972" lon="2.40997">
        <ele>91.46</ele>
        <time>2022-06-15T13:32:54Z</time>
      </trkpt>
      <trkpt lat="49.96985" lon="2.4102">
        <ele>89.06</ele>
        <time>2022-06-15T13:33:09Z</time>
      </trkpt>
      <trkpt lat="49.96995" lon="2.41043">
        <ele>86.18</ele>
        <time>2022-06-15T13:33:23Z</time>
      </trkpt>
      <trkpt lat="49.97008" lon="2.41065">
        <ele>86.66</ele>
        <time>2022-06-15T13:33:38Z</time>
      </trkpt>
      <trkpt lat="49.97023" lon="2.41083">
        <ele>87.14</ele>
        <time>2022-06-15T13:33:52Z</time>
      </trkpt>
      <trkpt lat="49.97036" lon="2.41098">
        <ele>86.18</ele>
        <time>2022-06-15T13:34:06Z</time>
      </trkpt>
      <trkpt lat="49.97046" lon="2.41114">
        <ele>84.73</ele>
        <time>2022-06-15T13:34:18Z</time>
      </trkpt>
      <trkpt lat="49.9705" lon="2.41139">
        <ele>82.81</ele>
        <time>2022-06-15T13:34:32Z</time>
      </trkpt>
      <trkpt lat="49.97058" lon="2.41165">
        <ele>81.37</ele>
        <time>2022-06-15T13:34:47Z</time>
      </trkpt>
      <trkpt lat="49.97066" lon="2.41185">
        <ele>79.93</ele>
        <time>2022-06-15T13:35:00Z</time>
      </trkpt>
      <trkpt lat="49.97074" lon="2.41204">
        <ele>78.97</ele>
        <time>2022-06-15T13:35:12Z</time>
      </trkpt>
      <trkpt lat="49.97083" lon="2.41225">
        <ele>78</ele>
        <time>2022-06-15T13:35:26Z</time>
      </trkpt>
      <trkpt lat="49.97093" lon="2.41248">
        <ele>76.08</ele>
        <time>2022-06-15T13:35:41Z</time>
      </trkpt>
      <trkpt lat="49.97102" lon="2.41266">
        <ele>74.16</ele>
        <time>2022-06-15T13:35:54Z</time>
      </trkpt>
      <trkpt lat="49.9711" lon="2.41286">
        <ele>73.2</ele>
        <time>2022-06-15T13:36:07Z</time>
      </trkpt>
      <trkpt lat="49.9712" lon="2.41309">
        <ele>71.76</ele>
        <time>2022-06-15T13:36:22Z</time>
      </trkpt>
      <trkpt lat="49.97129" lon="2.41332">
        <ele>70.79</ele>
        <time>2022-06-15T13:36:37Z</time>
      </trkpt>
      <trkpt lat="49.97141" lon="2.41356">
        <ele>69.83</ele>
        <time>2022-06-15T13:36:53Z</time>
      </trkpt>
      <trkpt lat="49.97151" lon="2.41377">
        <ele>68.87</ele>
        <time>2022-06-15T13:37:07Z</time>
      </trkpt>
      <trkpt lat="49.97161" lon="2.41397">
        <ele>68.39</ele>
        <time>2022-06-15T13:37:20Z</time>
      </trkpt>
      <trkpt lat="49.97172" lon="2.41423">
        <ele>67.43</ele>
        <time>2022-06-15T13:37:36Z</time>
      </trkpt>
      <trkpt lat="49.9718" lon="2.41448">
        <ele>65.99</ele>
        <time>2022-06-15T13:37:51Z</time>
      </trkpt>
      <trkpt lat="49.97188" lon="2.41473">
        <ele>65.03</ele>
        <time>2022-06-15T13:38:06Z</time>
      </trkpt>
      <trkpt lat="49.97195" lon="2.41496">
        <ele>64.55</ele>
        <time>2022-06-15T13:38:20Z</time>
      </trkpt>
      <trkpt lat="49.97202" lon="2.41515">
        <ele>64.07</ele>
        <time>2022-06-15T13:38:32Z</time>
      </trkpt>
      <trkpt lat="49.97209" lon="2.41538">
        <ele>64.07</ele>
        <time>2022-06-15T13:38:46Z</time>
      </trkpt>
      <trkpt lat="49.97215" lon="2.41557">
        <ele>64.07</ele>
        <time>2022-06-15T13:38:57Z</time>
      </trkpt>
      <trkpt lat="49.97223" lon="2.41582">
        <ele>63.58</ele>
        <time>2022-06-15T13:39:12Z</time>
      </trkpt>
      <trkpt lat="49.97232" lon="2.41608">
        <ele>62.62</ele>
        <time>2022-06-15T13:39:27Z</time>
      </trkpt>
      <trkpt lat="49.97241" lon="2.41636">
        <ele>62.14</ele>
        <time>2022-06-15T13:39:43Z</time>
      </trkpt>
      <trkpt lat="49.9725" lon="2.41665">
        <ele>61.18</ele>
        <time>2022-06-15T13:40:00Z</time>
      </trkpt>
      <trkpt lat="49.97258" lon="2.41692">
        <ele>60.22</ele>
        <time>2022-06-15T13:40:15Z</time>
      </trkpt>
      <trkpt lat="49.97265" lon="2.41715">
        <ele>59.26</ele>
        <time>2022-06-15T13:40:29Z</time>
      </trkpt>
      <trkpt lat="49.97272" lon="2.41739">
        <ele>59.26</ele>
        <time>2022-06-15T13:40:43Z</time>
      </trkpt>
      <trkpt lat="49.97288" lon="2.41751">
        <ele>60.7</ele>
        <time>2022-06-15T13:40:57Z</time>
      </trkpt>
      <trkpt lat="49.97306" lon="2.41735">
        <ele>59.74</ele>
        <time>2022-06-15T13:41:13Z</time>
      </trkpt>
      <trkpt lat="49.97326" lon="2.41718">
        <ele>58.3</ele>
        <time>2022-06-15T13:41:31Z</time>
      </trkpt>
      <trkpt lat="49.97344" lon="2.41707">
        <ele>57.82</ele>
        <time>2022-06-15T13:41:46Z</time>
      </trkpt>
      <trkpt lat="49.97364" lon="2.41693">
        <ele>57.82</ele>
        <time>2022-06-15T13:42:03Z</time>
      </trkpt>
      <trkpt lat="49.97384" lon="2.41676">
        <ele>57.82</ele>
        <time>2022-06-15T13:42:21Z</time>
      </trkpt>
      <trkpt lat="49.974" lon="2.41665">
        <ele>56.86</ele>
        <time>2022-06-15T13:42:36Z</time>
      </trkpt>
      <trkpt lat="49.97412" lon="2.41656">
        <ele>56.86</ele>
        <time>2022-06-15T13:42:48Z</time>
      </trkpt>
      <trkpt lat="49.97431" lon="2.41643">
        <ele>56.86</ele>
        <time>2022-06-15T13:43:04Z</time>
      </trkpt>
      <trkpt lat="49.97452" lon="2.41627">
        <ele>55.89</ele>
        <time>2022-06-15T13:43:22Z</time>
      </trkpt>
      <trkpt lat="49.9747" lon="2.41613">
        <ele>56.37</ele>
        <time>2022-06-15T13:43:37Z</time>
      </trkpt>
      <trkpt lat="49.97487" lon="2.41602">
        <ele>56.86</ele>
        <time>2022-06-15T13:43:52Z</time>
      </trkpt>
      <trkpt lat="49.97502" lon="2.41589">
        <ele>55.41</ele>
        <time>2022-06-15T13:44:08Z</time>
      </trkpt>
      <trkpt lat="49.97503" lon="2.41588">
        <ele>55.41</ele>
        <time>2022-06-15T13:44:21Z</time>
      </trkpt>
      <trkpt lat="49.97503" lon="2.41588">
        <ele>55.41</ele>
        <time>2022-06-15T13:44:37Z</time>
      </trkpt>
      <trkpt lat="49.97504" lon="2.41588">
        <ele>55.89</ele>
        <time>2022-06-15T13:44:47Z</time>
      </trkpt>
      <trkpt lat="49.97506" lon="2.41589">
        <ele>56.37</ele>
        <time>2022-06-15T13:45:03Z</time>
      </trkpt>
      <trkpt lat="49.97507" lon="2.4159">
        <ele>57.34</ele>
        <time>2022-06-15T13:45:20Z</time>
      </trkpt>
      <trkpt lat="49.97508" lon="2.41589">
        <ele>56.86</ele>
        <time>2022-06-15T13:45:32Z</time>
      </trkpt>
      <trkpt lat="49.97512" lon="2.41593">
        <ele>56.86</ele>
        <time>2022-06-15T13:45:38Z</time>
      </trkpt>
      <trkpt lat="49.97519" lon="2.41618">
        <ele>56.37</ele>
        <time>2022-06-15T13:45:53Z</time>
      </trkpt>
      <trkpt lat="49.97528" lon="2.41647">
        <ele>55.89</ele>
        <time>2022-06-15T13:46:09Z</time>
      </trkpt>
      <trkpt lat="49.97536" lon="2.41668">
        <ele>57.34</ele>
        <time>2022-06-15T13:46:20Z</time>
      </trkpt>
      <trkpt lat="49.97547" lon="2.41698">
        <ele>58.78</ele>
        <time>2022-06-15T13:46:35Z</time>
      </trkpt>
      <trkpt lat="49.97558" lon="2.41725">
        <ele>59.74</ele>
        <time>2022-06-15T13:46:50Z</time>
      </trkpt>
      <trkpt lat="49.97566" lon="2.41751">
        <ele>60.7</ele>
        <time>2022-06-15T13:47:04Z</time>
      </trkpt>
      <trkpt lat="49.97577" lon="2.41784">
        <ele>61.66</ele>
        <time>2022-06-15T13:47:21Z</time>
      </trkpt>
      <trkpt lat="49.97584" lon="2.41811">
        <ele>62.62</ele>
        <time>2022-06-15T13:47:35Z</time>
      </trkpt>
      <trkpt lat="49.9759" lon="2.41829">
        <ele>63.58</ele>
        <time>2022-06-15T13:47:45Z</time>
      </trkpt>
      <trkpt lat="49.97597" lon="2.41855">
        <ele>64.07</ele>
        <time>2022-06-15T13:47:59Z</time>
      </trkpt>
      <trkpt lat="49.97607" lon="2.41888">
        <ele>64.07</ele>
        <time>2022-06-15T13:48:17Z</time>
      </trkpt>
      <trkpt lat="49.97611" lon="2.41913">
        <ele>64.55</ele>
        <time>2022-06-15T13:48:30Z</time>
      </trkpt>
      <trkpt lat="49.97617" lon="2.41932">
        <ele>64.55</ele>
        <time>2022-06-15T13:48:41Z</time>
      </trkpt>
      <trkpt lat="49.97624" lon="2.41964">
        <ele>65.99</ele>
        <time>2022-06-15T13:48:57Z</time>
      </trkpt>
      <trkpt lat="49.97627" lon="2.41982">
        <ele>65.99</ele>
        <time>2022-06-15T13:49:07Z</time>
      </trkpt>
      <trkpt lat="49.97629" lon="2.41985">
        <ele>66.47</ele>
        <time>2022-06-15T13:49:09Z</time>
      </trkpt>
      <trkpt lat="49.97637" lon="2.42015">
        <ele>66.95</ele>
        <time>2022-06-15T13:49:25Z</time>
      </trkpt>
      <trkpt lat="49.97642" lon="2.42039">
        <ele>67.43</ele>
        <time>2022-06-15T13:49:37Z</time>
      </trkpt>
      <trkpt lat="49.9765" lon="2.4207">
        <ele>68.39</ele>
        <time>2022-06-15T13:49:54Z</time>
      </trkpt>
      <trkpt lat="49.97658" lon="2.42105">
        <ele>69.35</ele>
        <time>2022-06-15T13:50:12Z</time>
      </trkpt>
      <trkpt lat="49.97661" lon="2.42122">
        <ele>70.31</ele>
        <time>2022-06-15T13:50:21Z</time>
      </trkpt>
      <trkpt lat="49.97666" lon="2.42144">
        <ele>71.76</ele>
        <time>2022-06-15T13:50:33Z</time>
      </trkpt>
      <trkpt lat="49.97674" lon="2.42176">
        <ele>72.24</ele>
        <time>2022-06-15T13:50:50Z</time>
      </trkpt>
      <trkpt lat="49.97681" lon="2.42204">
        <ele>72.24</ele>
        <time>2022-06-15T13:51:05Z</time>
      </trkpt>
      <trkpt lat="49.97689" lon="2.4223">
        <ele>73.68</ele>
        <time>2022-06-15T13:51:20Z</time>
      </trkpt>
      <trkpt lat="49.977" lon="2.42264">
        <ele>75.12</ele>
        <time>2022-06-15T13:51:39Z</time>
      </trkpt>
      <trkpt lat="49.97707" lon="2.42281">
        <ele>76.08</ele>
        <time>2022-06-15T13:51:50Z</time>
      </trkpt>
      <trkpt lat="49.97713" lon="2.423">
        <ele>77.04</ele>
        <time>2022-06-15T13:52:01Z</time>
      </trkpt>
      <trkpt lat="49.97722" lon="2.42319">
        <ele>76.56</ele>
        <time>2022-06-15T13:52:13Z</time>
      </trkpt>
      <trkpt lat="49.97735" lon="2.42346">
        <ele>78.97</ele>
        <time>2022-06-15T13:52:29Z</time>
      </trkpt>
      <trkpt lat="49.97747" lon="2.4237">
        <ele>79.93</ele>
        <time>2022-06-15T13:52:44Z</time>
      </trkpt>
      <trkpt lat="49.97756" lon="2.42386">
        <ele>79.93</ele>
        <time>2022-06-15T13:52:57Z</time>
      </trkpt>
      <trkpt lat="49.97761" lon="2.42386">
        <ele>79.93</ele>
        <time>2022-06-15T13:53:01Z</time>
      </trkpt>
      <trkpt lat="49.97767" lon="2.42384">
        <ele>80.41</ele>
        <time>2022-06-15T13:53:06Z</time>
      </trkpt>
      <trkpt lat="49.97769" lon="2.42381">
        <ele>79.93</ele>
        <time>2022-06-15T13:53:10Z</time>
      </trkpt>
      <trkpt lat="49.9777" lon="2.42351">
        <ele>79.93</ele>
        <time>2022-06-15T13:53:26Z</time>
      </trkpt>
      <trkpt lat="49.97773" lon="2.42328">
        <ele>80.41</ele>
        <time>2022-06-15T13:53:39Z</time>
      </trkpt>
      <trkpt lat="49.97774" lon="2.42323">
        <ele>80.41</ele>
        <time>2022-06-15T13:53:43Z</time>
      </trkpt>
      <trkpt lat="49.97777" lon="2.423">
        <ele>79.93</ele>
        <time>2022-06-15T13:53:56Z</time>
      </trkpt>
      <trkpt lat="49.97779" lon="2.42272">
        <ele>80.41</ele>
        <time>2022-06-15T13:54:10Z</time>
      </trkpt>
      <trkpt lat="49.97781" lon="2.42241">
        <ele>82.33</ele>
        <time>2022-06-15T13:54:26Z</time>
      </trkpt>
      <trkpt lat="49.97785" lon="2.42213">
        <ele>82.81</ele>
        <time>2022-06-15T13:54:41Z</time>
      </trkpt>
      <trkpt lat="49.97786" lon="2.4221">
        <ele>83.29</ele>
        <time>2022-06-15T13:54:43Z</time>
      </trkpt>
      <trkpt lat="49.9779" lon="2.42189">
        <ele>83.77</ele>
        <time>2022-06-15T13:54:56Z</time>
      </trkpt>
      <trkpt lat="49.97797" lon="2.42162">
        <ele>84.73</ele>
        <time>2022-06-15T13:55:11Z</time>
      </trkpt>
      <trkpt lat="49.97805" lon="2.42133">
        <ele>85.69</ele>
        <time>2022-06-15T13:55:29Z</time>
      </trkpt>
      <trkpt lat="49.97814" lon="2.42105">
        <ele>86.66</ele>
        <time>2022-06-15T13:55:45Z</time>
      </trkpt>
      <trkpt lat="49.97821" lon="2.42078">
        <ele>86.18</ele>
        <time>2022-06-15T13:56:00Z</time>
      </trkpt>
      <trkpt lat="49.9783" lon="2.4205">
        <ele>86.18</ele>
        <time>2022-06-15T13:56:16Z</time>
      </trkpt>
      <trkpt lat="49.97836" lon="2.42023">
        <ele>86.66</ele>
        <time>2022-06-15T13:56:31Z</time>
      </trkpt>
      <trkpt lat="49.9784" lon="2.41996">
        <ele>86.66</ele>
        <time>2022-06-15T13:56:45Z</time>
      </trkpt>
      <trkpt lat="49.97842" lon="2.41974">
        <ele>86.66</ele>
        <time>2022-06-15T13:56:59Z</time>
      </trkpt>
      <trkpt lat="49.97843" lon="2.41959">
        <ele>87.14</ele>
        <time>2022-06-15T13:57:10Z</time>
      </trkpt>
      <trkpt lat="49.97845" lon="2.41941">
        <ele>87.14</ele>
        <time>2022-06-15T13:57:21Z</time>
      </trkpt>
      <trkpt lat="49.97849" lon="2.41914">
        <ele>87.14</ele>
        <time>2022-06-15T13:57:37Z</time>
      </trkpt>
      <trkpt lat="49.97855" lon="2.41882">
        <ele>87.14</ele>
        <time>2022-06-15T13:57:53Z</time>
      </trkpt>
      <trkpt lat="49.97861" lon="2.41854">
        <ele>87.62</ele>
        <time>2022-06-15T13:58:09Z</time>
      </trkpt>
      <trkpt lat="49.97866" lon="2.41827">
        <ele>87.62</ele>
        <time>2022-06-15T13:58:24Z</time>
      </trkpt>
      <trkpt lat="49.97873" lon="2.41799">
        <ele>87.62</ele>
        <time>2022-06-15T13:58:39Z</time>
      </trkpt>
      <trkpt lat="49.9788" lon="2.4177">
        <ele>88.1</ele>
        <time>2022-06-15T13:58:55Z</time>
      </trkpt>
      <trkpt lat="49.97886" lon="2.41739">
        <ele>88.58</ele>
        <time>2022-06-15T13:59:11Z</time>
      </trkpt>
      <trkpt lat="49.97891" lon="2.41709">
        <ele>88.58</ele>
        <time>2022-06-15T13:59:26Z</time>
      </trkpt>
      <trkpt lat="49.97898" lon="2.41679">
        <ele>89.54</ele>
        <time>2022-06-15T13:59:42Z</time>
      </trkpt>
      <trkpt lat="49.97903" lon="2.41651">
        <ele>88.58</ele>
        <time>2022-06-15T13:59:57Z</time>
      </trkpt>
      <trkpt lat="49.9791" lon="2.41625">
        <ele>89.54</ele>
        <time>2022-06-15T14:00:12Z</time>
      </trkpt>
      <trkpt lat="49.97913" lon="2.41601">
        <ele>90.02</ele>
        <time>2022-06-15T14:00:25Z</time>
      </trkpt>
      <trkpt lat="49.97915" lon="2.41574">
        <ele>90.02</ele>
        <time>2022-06-15T14:00:39Z</time>
      </trkpt>
      <trkpt lat="49.97918" lon="2.41548">
        <ele>90.02</ele>
        <time>2022-06-15T14:00:52Z</time>
      </trkpt>
      <trkpt lat="49.97919" lon="2.41519">
        <ele>89.54</ele>
        <time>2022-06-15T14:01:07Z</time>
      </trkpt>
      <trkpt lat="49.97921" lon="2.41489">
        <ele>87.62</ele>
        <time>2022-06-15T14:01:22Z</time>
      </trkpt>
      <trkpt lat="49.97921" lon="2.41464">
        <ele>87.14</ele>
        <time>2022-06-15T14:01:35Z</time>
      </trkpt>
      <trkpt lat="49.97923" lon="2.41434">
        <ele>87.62</ele>
        <time>2022-06-15T14:01:50Z</time>
      </trkpt>
      <trkpt lat="49.97925" lon="2.41413">
        <ele>87.62</ele>
        <time>2022-06-15T14:02:01Z</time>
      </trkpt>
      <trkpt lat="49.97925" lon="2.41405">
        <ele>87.62</ele>
        <time>2022-06-15T14:02:05Z</time>
      </trkpt>
      <trkpt lat="49.97927" lon="2.41374">
        <ele>88.58</ele>
        <time>2022-06-15T14:02:20Z</time>
      </trkpt>
      <trkpt lat="49.9793" lon="2.41353">
        <ele>90.5</ele>
        <time>2022-06-15T14:02:32Z</time>
      </trkpt>
      <trkpt lat="49.97932" lon="2.41337">
        <ele>91.94</ele>
        <time>2022-06-15T14:02:46Z</time>
      </trkpt>
      <trkpt lat="49.97934" lon="2.41324">
        <ele>91.94</ele>
        <time>2022-06-15T14:02:58Z</time>
      </trkpt>
      <trkpt lat="49.97934" lon="2.41321">
        <ele>92.42</ele>
        <time>2022-06-15T14:03:14Z</time>
      </trkpt>
      <trkpt lat="49.97934" lon="2.41318">
        <ele>93.87</ele>
        <time>2022-06-15T14:03:24Z</time>
      </trkpt>
      <trkpt lat="49.97934" lon="2.41318">
        <ele>95.31</ele>
        <time>2022-06-15T14:03:44Z</time>
      </trkpt>
      <trkpt lat="49.97934" lon="2.41317">
        <ele>95.79</ele>
        <time>2022-06-15T14:03:58Z</time>
      </trkpt>
      <trkpt lat="49.97935" lon="2.41302">
        <ele>95.31</ele>
        <time>2022-06-15T14:04:07Z</time>
      </trkpt>
      <trkpt lat="49.97936" lon="2.41297">
        <ele>94.35</ele>
        <time>2022-06-15T14:04:10Z</time>
      </trkpt>
      <trkpt lat="49.97939" lon="2.41271">
        <ele>94.35</ele>
        <time>2022-06-15T14:04:24Z</time>
      </trkpt>
      <trkpt lat="49.97944" lon="2.41245">
        <ele>93.87</ele>
        <time>2022-06-15T14:04:39Z</time>
      </trkpt>
      <trkpt lat="49.97947" lon="2.41221">
        <ele>92.9</ele>
        <time>2022-06-15T14:04:52Z</time>
      </trkpt>
      <trkpt lat="49.97951" lon="2.41197">
        <ele>92.42</ele>
        <time>2022-06-15T14:05:05Z</time>
      </trkpt>
      <trkpt lat="49.97958" lon="2.41166">
        <ele>91.46</ele>
        <time>2022-06-15T14:05:21Z</time>
      </trkpt>
      <trkpt lat="49.97966" lon="2.41143">
        <ele>90.02</ele>
        <time>2022-06-15T14:05:34Z</time>
      </trkpt>
      <trkpt lat="49.97972" lon="2.41123">
        <ele>89.06</ele>
        <time>2022-06-15T14:05:46Z</time>
      </trkpt>
      <trkpt lat="49.97978" lon="2.41104">
        <ele>88.1</ele>
        <time>2022-06-15T14:05:59Z</time>
      </trkpt>
      <trkpt lat="49.97987" lon="2.41079">
        <ele>88.1</ele>
        <time>2022-06-15T14:06:12Z</time>
      </trkpt>
      <trkpt lat="49.97996" lon="2.4106">
        <ele>88.58</ele>
        <time>2022-06-15T14:06:25Z</time>
      </trkpt>
      <trkpt lat="49.98" lon="2.41041">
        <ele>87.62</ele>
        <time>2022-06-15T14:06:36Z</time>
      </trkpt>
      <trkpt lat="49.9801" lon="2.41015">
        <ele>90.02</ele>
        <time>2022-06-15T14:06:50Z</time>
      </trkpt>
      <trkpt lat="49.98019" lon="2.40997">
        <ele>90.98</ele>
        <time>2022-06-15T14:07:02Z</time>
      </trkpt>
      <trkpt lat="49.98028" lon="2.40983">
        <ele>89.06</ele>
        <time>2022-06-15T14:07:15Z</time>
      </trkpt>
      <trkpt lat="49.98038" lon="2.40966">
        <ele>85.69</ele>
        <time>2022-06-15T14:07:27Z</time>
      </trkpt>
      <trkpt lat="49.98047" lon="2.40945">
        <ele>83.77</ele>
        <time>2022-06-15T14:07:39Z</time>
      </trkpt>
      <trkpt lat="49.98051" lon="2.40935">
        <ele>82.33</ele>
        <time>2022-06-15T14:07:46Z</time>
      </trkpt>
      <trkpt lat="49.98057" lon="2.40911">
        <ele>80.89</ele>
        <time>2022-06-15T14:07:58Z</time>
      </trkpt>
      <trkpt lat="49.98064" lon="2.40871">
        <ele>83.77</ele>
        <time>2022-06-15T14:08:15Z</time>
      </trkpt>
      <trkpt lat="49.9807" lon="2.4085">
        <ele>85.21</ele>
        <time>2022-06-15T14:08:27Z</time>
      </trkpt>
      <trkpt lat="49.9807" lon="2.40848">
        <ele>85.21</ele>
        <time>2022-06-15T14:08:28Z</time>
      </trkpt>
      <trkpt lat="49.98074" lon="2.40829">
        <ele>87.62</ele>
        <time>2022-06-15T14:08:40Z</time>
      </trkpt>
      <trkpt lat="49.98078" lon="2.40807">
        <ele>89.54</ele>
        <time>2022-06-15T14:08:52Z</time>
      </trkpt>
      <trkpt lat="49.98081" lon="2.4078">
        <ele>90.5</ele>
        <time>2022-06-15T14:09:06Z</time>
      </trkpt>
      <trkpt lat="49.98086" lon="2.40754">
        <ele>90.98</ele>
        <time>2022-06-15T14:09:19Z</time>
      </trkpt>
      <trkpt lat="49.98091" lon="2.4074">
        <ele>91.46</ele>
        <time>2022-06-15T14:09:28Z</time>
      </trkpt>
      <trkpt lat="49.98093" lon="2.40734">
        <ele>90.5</ele>
        <time>2022-06-15T14:09:32Z</time>
      </trkpt>
      <trkpt lat="49.98096" lon="2.40709">
        <ele>89.54</ele>
        <time>2022-06-15T14:09:44Z</time>
      </trkpt>
      <trkpt lat="49.98101" lon="2.40688">
        <ele>89.06</ele>
        <time>2022-06-15T14:09:57Z</time>
      </trkpt>
      <trkpt lat="49.98105" lon="2.40666">
        <ele>90.02</ele>
        <time>2022-06-15T14:10:08Z</time>
      </trkpt>
      <trkpt lat="49.98108" lon="2.40634">
        <ele>90.02</ele>
        <time>2022-06-15T14:10:22Z</time>
      </trkpt>
      <trkpt lat="49.98111" lon="2.406">
        <ele>92.42</ele>
        <time>2022-06-15T14:10:36Z</time>
      </trkpt>
      <trkpt lat="49.98115" lon="2.40576">
        <ele>94.35</ele>
        <time>2022-06-15T14:10:48Z</time>
      </trkpt>
      <trkpt lat="49.98118" lon="2.40547">
        <ele>97.23</ele>
        <time>2022-06-15T14:11:02Z</time>
      </trkpt>
      <trkpt lat="49.98122" lon="2.40518">
        <ele>97.23</ele>
        <time>2022-06-15T14:11:17Z</time>
      </trkpt>
      <trkpt lat="49.98126" lon="2.40493">
        <ele>97.23</ele>
        <time>2022-06-15T14:11:30Z</time>
      </trkpt>
      <trkpt lat="49.98128" lon="2.40475">
        <ele>96.75</ele>
        <time>2022-06-15T14:11:41Z</time>
      </trkpt>
      <trkpt lat="49.9813" lon="2.40458">
        <ele>95.79</ele>
        <time>2022-06-15T14:11:52Z</time>
      </trkpt>
      <trkpt lat="49.98133" lon="2.40449">
        <ele>96.27</ele>
        <time>2022-06-15T14:11:58Z</time>
      </trkpt>
      <trkpt lat="49.98135" lon="2.40431">
        <ele>95.31</ele>
        <time>2022-06-15T14:12:09Z</time>
      </trkpt>
      <trkpt lat="49.98141" lon="2.40407">
        <ele>91.46</ele>
        <time>2022-06-15T14:12:23Z</time>
      </trkpt>
      <trkpt lat="49.98149" lon="2.40386">
        <ele>90.98</ele>
        <time>2022-06-15T14:12:35Z</time>
      </trkpt>
      <trkpt lat="49.98159" lon="2.40365">
        <ele>89.06</ele>
        <time>2022-06-15T14:12:47Z</time>
      </trkpt>
      <trkpt lat="49.98162" lon="2.40361">
        <ele>88.58</ele>
        <time>2022-06-15T14:12:50Z</time>
      </trkpt>
      <trkpt lat="49.98176" lon="2.4034">
        <ele>87.14</ele>
        <time>2022-06-15T14:13:05Z</time>
      </trkpt>
      <trkpt lat="49.98182" lon="2.40318">
        <ele>90.02</ele>
        <time>2022-06-15T14:13:16Z</time>
      </trkpt>
      <trkpt lat="49.98187" lon="2.4029">
        <ele>92.9</ele>
        <time>2022-06-15T14:13:29Z</time>
      </trkpt>
      <trkpt lat="49.98193" lon="2.40267">
        <ele>94.35</ele>
        <time>2022-06-15T14:13:42Z</time>
      </trkpt>
      <trkpt lat="49.98199" lon="2.4025">
        <ele>93.87</ele>
        <time>2022-06-15T14:13:52Z</time>
      </trkpt>
      <trkpt lat="49.98206" lon="2.40226">
        <ele>95.31</ele>
        <time>2022-06-15T14:14:05Z</time>
      </trkpt>
      <trkpt lat="49.98213" lon="2.40201">
        <ele>97.71</ele>
        <time>2022-06-15T14:14:16Z</time>
      </trkpt>
      <trkpt lat="49.98224" lon="2.40179">
        <ele>97.71</ele>
        <time>2022-06-15T14:14:30Z</time>
      </trkpt>
      <trkpt lat="49.98235" lon="2.40166">
        <ele>95.31</ele>
        <time>2022-06-15T14:14:40Z</time>
      </trkpt>
      <trkpt lat="49.98245" lon="2.40151">
        <ele>96.27</ele>
        <time>2022-06-15T14:14:50Z</time>
      </trkpt>
      <trkpt lat="49.98259" lon="2.40128">
        <ele>95.31</ele>
        <time>2022-06-15T14:15:04Z</time>
      </trkpt>
      <trkpt lat="49.98272" lon="2.40105">
        <ele>95.79</ele>
        <time>2022-06-15T14:15:18Z</time>
      </trkpt>
      <trkpt lat="49.98287" lon="2.40083">
        <ele>95.79</ele>
        <time>2022-06-15T14:15:33Z</time>
      </trkpt>
      <trkpt lat="49.98302" lon="2.40065">
        <ele>93.87</ele>
        <time>2022-06-15T14:15:48Z</time>
      </trkpt>
      <trkpt lat="49.98316" lon="2.40048">
        <ele>93.39</ele>
        <time>2022-06-15T14:16:01Z</time>
      </trkpt>
      <trkpt lat="49.98328" lon="2.40036">
        <ele>92.9</ele>
        <time>2022-06-15T14:16:14Z</time>
      </trkpt>
      <trkpt lat="49.98328" lon="2.40033">
        <ele>92.9</ele>
        <time>2022-06-15T14:16:26Z</time>
      </trkpt>
      <trkpt lat="49.98329" lon="2.40032">
        <ele>93.87</ele>
        <time>2022-06-15T14:16:43Z</time>
      </trkpt>
      <trkpt lat="49.98328" lon="2.40031">
        <ele>95.79</ele>
        <time>2022-06-15T14:17:02Z</time>
      </trkpt>
      <trkpt lat="49.98328" lon="2.40031">
        <ele>96.75</ele>
        <time>2022-06-15T14:17:19Z</time>
      </trkpt>
      <trkpt lat="49.98328" lon="2.40031">
        <ele>97.23</ele>
        <time>2022-06-15T14:17:32Z</time>
      </trkpt>
      <trkpt lat="49.98328" lon="2.40031">
        <ele>98.19</ele>
        <time>2022-06-15T14:17:51Z</time>
      </trkpt>
      <trkpt lat="49.98328" lon="2.4003">
        <ele>98.67</ele>
        <time>2022-06-15T14:18:07Z</time>
      </trkpt>
      <trkpt lat="49.98328" lon="2.40029">
        <ele>99.15</ele>
        <time>2022-06-15T14:18:27Z</time>
      </trkpt>
      <trkpt lat="49.98328" lon="2.40027">
        <ele>100.11</ele>
        <time>2022-06-15T14:18:51Z</time>
      </trkpt>
      <trkpt lat="49.98328" lon="2.40027">
        <ele>101.08</ele>
        <time>2022-06-15T14:19:08Z</time>
      </trkpt>
      <trkpt lat="49.98329" lon="2.40026">
        <ele>101.08</ele>
        <time>2022-06-15T14:19:29Z</time>
      </trkpt>
      <trkpt lat="49.98329" lon="2.40025">
        <ele>102.04</ele>
        <time>2022-06-15T14:19:49Z</time>
      </trkpt>
      <trkpt lat="49.98329" lon="2.40024">
        <ele>102.04</ele>
        <time>2022-06-15T14:20:11Z</time>
      </trkpt>
      <trkpt lat="49.98331" lon="2.40022">
        <ele>101.56</ele>
        <time>2022-06-15T14:20:22Z</time>
      </trkpt>
      <trkpt lat="49.9834" lon="2.40011">
        <ele>99.63</ele>
        <time>2022-06-15T14:20:34Z</time>
      </trkpt>
      <trkpt lat="49.98354" lon="2.39995">
        <ele>98.19</ele>
        <time>2022-06-15T14:20:48Z</time>
      </trkpt>
      <trkpt lat="49.98367" lon="2.39978">
        <ele>97.71</ele>
        <time>2022-06-15T14:21:02Z</time>
      </trkpt>
      <trkpt lat="49.98379" lon="2.39964">
        <ele>97.71</ele>
        <time>2022-06-15T14:21:14Z</time>
      </trkpt>
      <trkpt lat="49.98391" lon="2.39947">
        <ele>98.67</ele>
        <time>2022-06-15T14:21:27Z</time>
      </trkpt>
      <trkpt lat="49.98405" lon="2.39928">
        <ele>97.71</ele>
        <time>2022-06-15T14:21:42Z</time>
      </trkpt>
      <trkpt lat="49.98417" lon="2.39912">
        <ele>95.31</ele>
        <time>2022-06-15T14:21:55Z</time>
      </trkpt>
      <trkpt lat="49.98432" lon="2.39888">
        <ele>94.35</ele>
        <time>2022-06-15T14:22:11Z</time>
      </trkpt>
      <trkpt lat="49.98446" lon="2.39865">
        <ele>91.94</ele>
        <time>2022-06-15T14:22:27Z</time>
      </trkpt>
      <trkpt lat="49.98456" lon="2.39843">
        <ele>91.94</ele>
        <time>2022-06-15T14:22:41Z</time>
      </trkpt>
      <trkpt lat="49.9847" lon="2.39811">
        <ele>90.98</ele>
        <time>2022-06-15T14:23:00Z</time>
      </trkpt>
      <trkpt lat="49.98482" lon="2.39786">
        <ele>90.5</ele>
        <time>2022-06-15T14:23:16Z</time>
      </trkpt>
      <trkpt lat="49.98493" lon="2.39758">
        <ele>90.98</ele>
        <time>2022-06-15T14:23:32Z</time>
      </trkpt>
      <trkpt lat="49.98505" lon="2.39728">
        <ele>90.98</ele>
        <time>2022-06-15T14:23:49Z</time>
      </trkpt>
      <trkpt lat="49.98517" lon="2.39702">
        <ele>89.54</ele>
        <time>2022-06-15T14:24:05Z</time>
      </trkpt>
      <trkpt lat="49.98528" lon="2.39675">
        <ele>88.1</ele>
        <time>2022-06-15T14:24:21Z</time>
      </trkpt>
      <trkpt lat="49.98539" lon="2.39646">
        <ele>87.14</ele>
        <time>2022-06-15T14:24:38Z</time>
      </trkpt>
      <trkpt lat="49.98551" lon="2.39608">
        <ele>85.69</ele>
        <time>2022-06-15T14:24:59Z</time>
      </trkpt>
      <trkpt lat="49.9856" lon="2.39574">
        <ele>84.25</ele>
        <time>2022-06-15T14:25:17Z</time>
      </trkpt>
      <trkpt lat="49.98568" lon="2.39536">
        <ele>83.29</ele>
        <time>2022-06-15T14:25:36Z</time>
      </trkpt>
      <trkpt lat="49.98577" lon="2.39498">
        <ele>83.29</ele>
        <time>2022-06-15T14:25:55Z</time>
      </trkpt>
      <trkpt lat="49.98583" lon="2.39467">
        <ele>82.33</ele>
        <time>2022-06-15T14:26:11Z</time>
      </trkpt>
      <trkpt lat="49.9859" lon="2.39435">
        <ele>82.81</ele>
        <time>2022-06-15T14:26:27Z</time>
      </trkpt>
      <trkpt lat="49.98598" lon="2.39402">
        <ele>81.85</ele>
        <time>2022-06-15T14:26:44Z</time>
      </trkpt>
      <trkpt lat="49.98605" lon="2.39368">
        <ele>80.89</ele>
        <time>2022-06-15T14:27:01Z</time>
      </trkpt>
      <trkpt lat="49.98612" lon="2.39336">
        <ele>79.93</ele>
        <time>2022-06-15T14:27:17Z</time>
      </trkpt>
      <trkpt lat="49.9862" lon="2.39303">
        <ele>79.45</ele>
        <time>2022-06-15T14:27:34Z</time>
      </trkpt>
      <trkpt lat="49.98628" lon="2.39265">
        <ele>78.97</ele>
        <time>2022-06-15T14:27:53Z</time>
      </trkpt>
      <trkpt lat="49.98635" lon="2.39228">
        <ele>78</ele>
        <time>2022-06-15T14:28:12Z</time>
      </trkpt>
      <trkpt lat="49.98643" lon="2.39197">
        <ele>78</ele>
        <time>2022-06-15T14:28:28Z</time>
      </trkpt>
      <trkpt lat="49.9865" lon="2.3916">
        <ele>77.04</ele>
        <time>2022-06-15T14:28:47Z</time>
      </trkpt>
      <trkpt lat="49.98658" lon="2.39125">
        <ele>78.48</ele>
        <time>2022-06-15T14:29:06Z</time>
      </trkpt>
      <trkpt lat="49.98668" lon="2.39098">
        <ele>79.45</ele>
        <time>2022-06-15T14:29:22Z</time>
      </trkpt>
      <trkpt lat="49.98681" lon="2.39064">
        <ele>80.89</ele>
        <time>2022-06-15T14:29:42Z</time>
      </trkpt>
      <trkpt lat="49.98691" lon="2.39035">
        <ele>80.41</ele>
        <time>2022-06-15T14:29:58Z</time>
      </trkpt>
      <trkpt lat="49.98703" lon="2.39004">
        <ele>81.85</ele>
        <time>2022-06-15T14:30:16Z</time>
      </trkpt>
      <trkpt lat="49.98716" lon="2.38972">
        <ele>80.89</ele>
        <time>2022-06-15T14:30:34Z</time>
      </trkpt>
      <trkpt lat="49.98726" lon="2.38942">
        <ele>81.85</ele>
        <time>2022-06-15T14:30:51Z</time>
      </trkpt>
      <trkpt lat="49.98736" lon="2.38913">
        <ele>82.33</ele>
        <time>2022-06-15T14:31:07Z</time>
      </trkpt>
      <trkpt lat="49.98745" lon="2.38889">
        <ele>82.33</ele>
        <time>2022-06-15T14:31:20Z</time>
      </trkpt>
      <trkpt lat="49.98756" lon="2.38859">
        <ele>83.29</ele>
        <time>2022-06-15T14:31:37Z</time>
      </trkpt>
      <trkpt lat="49.98764" lon="2.38836">
        <ele>83.29</ele>
        <time>2022-06-15T14:31:50Z</time>
      </trkpt>
      <trkpt lat="49.98769" lon="2.38822">
        <ele>83.29</ele>
        <time>2022-06-15T14:32:02Z</time>
      </trkpt>
      <trkpt lat="49.98775" lon="2.38809">
        <ele>83.29</ele>
        <time>2022-06-15T14:32:13Z</time>
      </trkpt>
      <trkpt lat="49.98776" lon="2.38807">
        <ele>85.21</ele>
        <time>2022-06-15T14:32:30Z</time>
      </trkpt>
      <trkpt lat="49.98776" lon="2.38807">
        <ele>85.69</ele>
        <time>2022-06-15T14:32:58Z</time>
      </trkpt>
      <trkpt lat="49.98784" lon="2.38794">
        <ele>85.21</ele>
        <time>2022-06-15T14:33:12Z</time>
      </trkpt>
      <trkpt lat="49.98788" lon="2.38774">
        <ele>87.14</ele>
        <time>2022-06-15T14:33:24Z</time>
      </trkpt>
      <trkpt lat="49.98785" lon="2.38753">
        <ele>88.58</ele>
        <time>2022-06-15T14:33:37Z</time>
      </trkpt>
      <trkpt lat="49.98779" lon="2.38732">
        <ele>85.69</ele>
        <time>2022-06-15T14:33:50Z</time>
      </trkpt>
      <trkpt lat="49.98771" lon="2.38711">
        <ele>87.14</ele>
        <time>2022-06-15T14:34:04Z</time>
      </trkpt>
      <trkpt lat="49.98767" lon="2.38706">
        <ele>87.62</ele>
        <time>2022-06-15T14:34:08Z</time>
      </trkpt>
      <trkpt lat="49.98755" lon="2.38685">
        <ele>88.58</ele>
        <time>2022-06-15T14:34:23Z</time>
      </trkpt>
      <trkpt lat="49.98746" lon="2.38666">
        <ele>88.58</ele>
        <time>2022-06-15T14:34:35Z</time>
      </trkpt>
      <trkpt lat="49.98741" lon="2.38657">
        <ele>88.58</ele>
        <time>2022-06-15T14:34:41Z</time>
      </trkpt>
      <trkpt lat="49.98727" lon="2.38628">
        <ele>88.58</ele>
        <time>2022-06-15T14:34:59Z</time>
      </trkpt>
      <trkpt lat="49.98715" lon="2.38608">
        <ele>90.02</ele>
        <time>2022-06-15T14:35:13Z</time>
      </trkpt>
      <trkpt lat="49.98704" lon="2.38585">
        <ele>91.46</ele>
        <time>2022-06-15T14:35:28Z</time>
      </trkpt>
      <trkpt lat="49.98696" lon="2.38558">
        <ele>91.94</ele>
        <time>2022-06-15T14:35:43Z</time>
      </trkpt>
      <trkpt lat="49.98695" lon="2.38531">
        <ele>90.5</ele>
        <time>2022-06-15T14:35:56Z</time>
      </trkpt>
      <trkpt lat="49.98696" lon="2.38503">
        <ele>87.62</ele>
        <time>2022-06-15T14:36:10Z</time>
      </trkpt>
      <trkpt lat="49.98697" lon="2.38489">
        <ele>87.14</ele>
        <time>2022-06-15T14:36:20Z</time>
      </trkpt>
      <trkpt lat="49.98697" lon="2.38486">
        <ele>87.14</ele>
        <time>2022-06-15T14:36:24Z</time>
      </trkpt>
      <trkpt lat="49.98699" lon="2.38479">
        <ele>87.14</ele>
        <time>2022-06-15T14:36:28Z</time>
      </trkpt>
      <trkpt lat="49.98701" lon="2.38459">
        <ele>88.1</ele>
        <time>2022-06-15T14:36:39Z</time>
      </trkpt>
      <trkpt lat="49.98702" lon="2.38439">
        <ele>87.62</ele>
        <time>2022-06-15T14:36:50Z</time>
      </trkpt>
      <trkpt lat="49.98706" lon="2.38417">
        <ele>89.06</ele>
        <time>2022-06-15T14:37:02Z</time>
      </trkpt>
      <trkpt lat="49.9871" lon="2.3839">
        <ele>88.58</ele>
        <time>2022-06-15T14:37:16Z</time>
      </trkpt>
      <trkpt lat="49.98714" lon="2.38374">
        <ele>89.06</ele>
        <time>2022-06-15T14:37:27Z</time>
      </trkpt>
      <trkpt lat="49.98712" lon="2.38369">
        <ele>90.5</ele>
        <time>2022-06-15T14:37:41Z</time>
      </trkpt>
      <trkpt lat="49.98714" lon="2.38358">
        <ele>90.5</ele>
        <time>2022-06-15T14:37:50Z</time>
      </trkpt>
      <trkpt lat="49.98716" lon="2.38337">
        <ele>90.98</ele>
        <time>2022-06-15T14:38:01Z</time>
      </trkpt>
      <trkpt lat="49.9872" lon="2.38312">
        <ele>90.5</ele>
        <time>2022-06-15T14:38:15Z</time>
      </trkpt>
      <trkpt lat="49.98725" lon="2.38289">
        <ele>90.02</ele>
        <time>2022-06-15T14:38:28Z</time>
      </trkpt>
      <trkpt lat="49.98729" lon="2.38264">
        <ele>89.06</ele>
        <time>2022-06-15T14:38:42Z</time>
      </trkpt>
      <trkpt lat="49.98726" lon="2.38259">
        <ele>88.1</ele>
        <time>2022-06-15T14:38:53Z</time>
      </trkpt>
      <trkpt lat="49.98725" lon="2.38258">
        <ele>88.1</ele>
        <time>2022-06-15T14:38:54Z</time>
      </trkpt>
      <trkpt lat="49.98718" lon="2.38256">
        <ele>87.14</ele>
        <time>2022-06-15T14:39:00Z</time>
      </trkpt>
      <trkpt lat="49.98701" lon="2.38261">
        <ele>85.21</ele>
        <time>2022-06-15T14:39:15Z</time>
      </trkpt>
      <trkpt lat="49.98683" lon="2.38262">
        <ele>83.77</ele>
        <time>2022-06-15T14:39:30Z</time>
      </trkpt>
      <trkpt lat="49.98668" lon="2.38259">
        <ele>79.93</ele>
        <time>2022-06-15T14:39:42Z</time>
      </trkpt>
      <trkpt lat="49.98653" lon="2.38249">
        <ele>78</ele>
        <time>2022-06-15T14:39:55Z</time>
      </trkpt>
      <trkpt lat="49.98641" lon="2.38233">
        <ele>76.56</ele>
        <time>2022-06-15T14:40:07Z</time>
      </trkpt>
      <trkpt lat="49.98628" lon="2.38212">
        <ele>73.2</ele>
        <time>2022-06-15T14:40:21Z</time>
      </trkpt>
      <trkpt lat="49.98614" lon="2.38193">
        <ele>69.83</ele>
        <time>2022-06-15T14:40:35Z</time>
      </trkpt>
      <trkpt lat="49.98597" lon="2.38171">
        <ele>69.35</ele>
        <time>2022-06-15T14:40:50Z</time>
      </trkpt>
      <trkpt lat="49.98582" lon="2.38146">
        <ele>70.31</ele>
        <time>2022-06-15T14:41:06Z</time>
      </trkpt>
      <trkpt lat="49.98569" lon="2.38129">
        <ele>72.72</ele>
        <time>2022-06-15T14:41:20Z</time>
      </trkpt>
      <trkpt lat="49.98564" lon="2.38124">
        <ele>75.12</ele>
        <time>2022-06-15T14:41:32Z</time>
      </trkpt>
      <trkpt lat="49.98563" lon="2.38124">
        <ele>75.6</ele>
        <time>2022-06-15T14:41:42Z</time>
      </trkpt>
      <trkpt lat="49.98561" lon="2.38117">
        <ele>76.56</ele>
        <time>2022-06-15T14:41:52Z</time>
      </trkpt>
      <trkpt lat="49.98554" lon="2.38109">
        <ele>79.93</ele>
        <time>2022-06-15T14:42:02Z</time>
      </trkpt>
      <trkpt lat="49.98543" lon="2.38098">
        <ele>79.93</ele>
        <time>2022-06-15T14:42:14Z</time>
      </trkpt>
      <trkpt lat="49.98528" lon="2.38086">
        <ele>77.04</ele>
        <time>2022-06-15T14:42:27Z</time>
      </trkpt>
      <trkpt lat="49.98509" lon="2.38076">
        <ele>75.12</ele>
        <time>2022-06-15T14:42:41Z</time>
      </trkpt>
      <trkpt lat="49.98489" lon="2.38063">
        <ele>77.52</ele>
        <time>2022-06-15T14:42:58Z</time>
      </trkpt>
      <trkpt lat="49.98471" lon="2.3805">
        <ele>77.04</ele>
        <time>2022-06-15T14:43:14Z</time>
      </trkpt>
      <trkpt lat="49.98453" lon="2.38037">
        <ele>78</ele>
        <time>2022-06-15T14:43:29Z</time>
      </trkpt>
      <trkpt lat="49.98441" lon="2.38026">
        <ele>78</ele>
        <time>2022-06-15T14:43:40Z</time>
      </trkpt>
      <trkpt lat="49.9843" lon="2.3802">
        <ele>78.97</ele>
        <time>2022-06-15T14:43:50Z</time>
      </trkpt>
      <trkpt lat="49.98428" lon="2.38017">
        <ele>79.45</ele>
        <time>2022-06-15T14:43:54Z</time>
      </trkpt>
      <trkpt lat="49.98412" lon="2.38003">
        <ele>80.89</ele>
        <time>2022-06-15T14:44:08Z</time>
      </trkpt>
      <trkpt lat="49.98403" lon="2.37994">
        <ele>78.97</ele>
        <time>2022-06-15T14:44:19Z</time>
      </trkpt>
      <trkpt lat="49.98384" lon="2.37978">
        <ele>75.6</ele>
        <time>2022-06-15T14:44:35Z</time>
      </trkpt>
      <trkpt lat="49.98367" lon="2.37962">
        <ele>78.97</ele>
        <time>2022-06-15T14:44:48Z</time>
      </trkpt>
      <trkpt lat="49.98353" lon="2.37945">
        <ele>80.89</ele>
        <time>2022-06-15T14:45:01Z</time>
      </trkpt>
      <trkpt lat="49.98337" lon="2.37925">
        <ele>82.33</ele>
        <time>2022-06-15T14:45:16Z</time>
      </trkpt>
      <trkpt lat="49.98323" lon="2.37903">
        <ele>85.21</ele>
        <time>2022-06-15T14:45:31Z</time>
      </trkpt>
      <trkpt lat="49.9831" lon="2.37882">
        <ele>87.14</ele>
        <time>2022-06-15T14:45:45Z</time>
      </trkpt>
      <trkpt lat="49.98295" lon="2.37859">
        <ele>88.1</ele>
        <time>2022-06-15T14:46:00Z</time>
      </trkpt>
      <trkpt lat="49.98281" lon="2.37836">
        <ele>88.1</ele>
        <time>2022-06-15T14:46:15Z</time>
      </trkpt>
      <trkpt lat="49.98272" lon="2.37808">
        <ele>88.58</ele>
        <time>2022-06-15T14:46:30Z</time>
      </trkpt>
      <trkpt lat="49.98264" lon="2.37782">
        <ele>89.06</ele>
        <time>2022-06-15T14:46:44Z</time>
      </trkpt>
      <trkpt lat="49.98256" lon="2.37758">
        <ele>89.06</ele>
        <time>2022-06-15T14:46:59Z</time>
      </trkpt>
      <trkpt lat="49.98249" lon="2.37735">
        <ele>88.58</ele>
        <time>2022-06-15T14:47:13Z</time>
      </trkpt>
      <trkpt lat="49.98242" lon="2.37715">
        <ele>88.1</ele>
        <time>2022-06-15T14:47:25Z</time>
      </trkpt>
      <trkpt lat="49.98236" lon="2.37694">
        <ele>88.1</ele>
        <time>2022-06-15T14:47:37Z</time>
      </trkpt>
      <trkpt lat="49.98228" lon="2.37669">
        <ele>88.1</ele>
        <time>2022-06-15T14:47:51Z</time>
      </trkpt>
      <trkpt lat="49.98221" lon="2.37644">
        <ele>88.1</ele>
        <time>2022-06-15T14:48:05Z</time>
      </trkpt>
      <trkpt lat="49.98213" lon="2.37621">
        <ele>88.1</ele>
        <time>2022-06-15T14:48:18Z</time>
      </trkpt>
      <trkpt lat="49.98207" lon="2.376">
        <ele>88.58</ele>
        <time>2022-06-15T14:48:31Z</time>
      </trkpt>
      <trkpt lat="49.98201" lon="2.37576">
        <ele>89.54</ele>
        <time>2022-06-15T14:48:45Z</time>
      </trkpt>
      <trkpt lat="49.98195" lon="2.37556">
        <ele>90.5</ele>
        <time>2022-06-15T14:48:58Z</time>
      </trkpt>
      <trkpt lat="49.98187" lon="2.37535">
        <ele>91.46</ele>
        <time>2022-06-15T14:49:11Z</time>
      </trkpt>
      <trkpt lat="49.98179" lon="2.37515">
        <ele>92.42</ele>
        <time>2022-06-15T14:49:24Z</time>
      </trkpt>
      <trkpt lat="49.98171" lon="2.37495">
        <ele>92.9</ele>
        <time>2022-06-15T14:49:36Z</time>
      </trkpt>
      <trkpt lat="49.98163" lon="2.37474">
        <ele>92.42</ele>
        <time>2022-06-15T14:49:50Z</time>
      </trkpt>
      <trkpt lat="49.98156" lon="2.37455">
        <ele>90.5</ele>
        <time>2022-06-15T14:50:02Z</time>
      </trkpt>
      <trkpt lat="49.98151" lon="2.37442">
        <ele>90.02</ele>
        <time>2022-06-15T14:50:13Z</time>
      </trkpt>
      <trkpt lat="49.98143" lon="2.37422">
        <ele>90.5</ele>
        <time>2022-06-15T14:50:25Z</time>
      </trkpt>
      <trkpt lat="49.98134" lon="2.374">
        <ele>90.98</ele>
        <time>2022-06-15T14:50:39Z</time>
      </trkpt>
      <trkpt lat="49.98127" lon="2.37385">
        <ele>91.94</ele>
        <time>2022-06-15T14:50:49Z</time>
      </trkpt>
      <trkpt lat="49.98125" lon="2.37382">
        <ele>91.94</ele>
        <time>2022-06-15T14:50:51Z</time>
      </trkpt>
      <trkpt lat="49.98113" lon="2.37363">
        <ele>91.94</ele>
        <time>2022-06-15T14:51:05Z</time>
      </trkpt>
      <trkpt lat="49.98103" lon="2.37348">
        <ele>92.9</ele>
        <time>2022-06-15T14:51:17Z</time>
      </trkpt>
      <trkpt lat="49.98093" lon="2.37332">
        <ele>92.42</ele>
        <time>2022-06-15T14:51:29Z</time>
      </trkpt>
      <trkpt lat="49.98086" lon="2.37315">
        <ele>93.39</ele>
        <time>2022-06-15T14:51:41Z</time>
      </trkpt>
      <trkpt lat="49.98077" lon="2.37296">
        <ele>91.94</ele>
        <time>2022-06-15T14:51:54Z</time>
      </trkpt>
      <trkpt lat="49.98066" lon="2.37276">
        <ele>90.02</ele>
        <time>2022-06-15T14:52:07Z</time>
      </trkpt>
      <trkpt lat="49.98058" lon="2.37263">
        <ele>88.1</ele>
        <time>2022-06-15T14:52:17Z</time>
      </trkpt>
      <trkpt lat="49.98048" lon="2.37248">
        <ele>86.66</ele>
        <time>2022-06-15T14:52:27Z</time>
      </trkpt>
      <trkpt lat="49.98041" lon="2.37237">
        <ele>86.18</ele>
        <time>2022-06-15T14:52:35Z</time>
      </trkpt>
      <trkpt lat="49.98028" lon="2.37217">
        <ele>87.62</ele>
        <time>2022-06-15T14:52:48Z</time>
      </trkpt>
      <trkpt lat="49.98018" lon="2.37205">
        <ele>91.94</ele>
        <time>2022-06-15T14:52:59Z</time>
      </trkpt>
      <trkpt lat="49.9801" lon="2.37192">
        <ele>93.39</ele>
        <time>2022-06-15T14:53:12Z</time>
      </trkpt>
      <trkpt lat="49.97998" lon="2.37174">
        <ele>97.71</ele>
        <time>2022-06-15T14:53:26Z</time>
      </trkpt>
      <trkpt lat="49.9799" lon="2.3716">
        <ele>100.6</ele>
        <time>2022-06-15T14:53:36Z</time>
      </trkpt>
      <trkpt lat="49.97981" lon="2.37145">
        <ele>103</ele>
        <time>2022-06-15T14:53:47Z</time>
      </trkpt>
      <trkpt lat="49.97972" lon="2.37131">
        <ele>103.96</ele>
        <time>2022-06-15T14:53:59Z</time>
      </trkpt>
      <trkpt lat="49.97962" lon="2.37113">
        <ele>104.92</ele>
        <time>2022-06-15T14:54:11Z</time>
      </trkpt>
      <trkpt lat="49.9795" lon="2.37098">
        <ele>104.92</ele>
        <time>2022-06-15T14:54:23Z</time>
      </trkpt>
      <trkpt lat="49.97936" lon="2.3708">
        <ele>107.32</ele>
        <time>2022-06-15T14:54:37Z</time>
      </trkpt>
      <trkpt lat="49.97925" lon="2.3707">
        <ele>109.73</ele>
        <time>2022-06-15T14:54:47Z</time>
      </trkpt>
      <trkpt lat="49.97919" lon="2.37065">
        <ele>109.25</ele>
        <time>2022-06-15T14:54:53Z</time>
      </trkpt>
      <trkpt lat="49.97903" lon="2.37057">
        <ele>109.25</ele>
        <time>2022-06-15T14:55:06Z</time>
      </trkpt>
      <trkpt lat="49.97889" lon="2.37048">
        <ele>109.25</ele>
        <time>2022-06-15T14:55:19Z</time>
      </trkpt>
      <trkpt lat="49.97881" lon="2.37045">
        <ele>110.21</ele>
        <time>2022-06-15T14:55:30Z</time>
      </trkpt>
      <trkpt lat="49.97882" lon="2.37044">
        <ele>110.69</ele>
        <time>2022-06-15T14:55:42Z</time>
      </trkpt>
      <trkpt lat="49.97882" lon="2.37044">
        <ele>110.69</ele>
        <time>2022-06-15T14:56:03Z</time>
      </trkpt>
      <trkpt lat="49.97881" lon="2.37043">
        <ele>110.69</ele>
        <time>2022-06-15T14:56:18Z</time>
      </trkpt>
      <trkpt lat="49.9788" lon="2.37042">
        <ele>110.69</ele>
        <time>2022-06-15T14:56:34Z</time>
      </trkpt>
      <trkpt lat="49.97879" lon="2.37041">
        <ele>110.69</ele>
        <time>2022-06-15T14:56:38Z</time>
      </trkpt>
      <trkpt lat="49.97869" lon="2.37033">
        <ele>112.13</ele>
        <time>2022-06-15T14:56:51Z</time>
      </trkpt>
      <trkpt lat="49.97865" lon="2.37029">
        <ele>112.13</ele>
        <time>2022-06-15T14:56:56Z</time>
      </trkpt>
      <trkpt lat="49.97847" lon="2.3702">
        <ele>111.65</ele>
        <time>2022-06-15T14:57:11Z</time>
      </trkpt>
      <trkpt lat="49.97832" lon="2.3701">
        <ele>112.13</ele>
        <time>2022-06-15T14:57:25Z</time>
      </trkpt>
      <trkpt lat="49.97815" lon="2.37">
        <ele>112.13</ele>
        <time>2022-06-15T14:57:39Z</time>
      </trkpt>
      <trkpt lat="49.97799" lon="2.36989">
        <ele>112.13</ele>
        <time>2022-06-15T14:57:52Z</time>
      </trkpt>
      <trkpt lat="49.97781" lon="2.36979">
        <ele>114.05</ele>
        <time>2022-06-15T14:58:07Z</time>
      </trkpt>
      <trkpt lat="49.97762" lon="2.36965">
        <ele>114.53</ele>
        <time>2022-06-15T14:58:22Z</time>
      </trkpt>
      <trkpt lat="49.9774" lon="2.36952">
        <ele>114.53</ele>
        <time>2022-06-15T14:58:39Z</time>
      </trkpt>
      <trkpt lat="49.97721" lon="2.3694">
        <ele>115.01</ele>
        <time>2022-06-15T14:58:54Z</time>
      </trkpt>
      <trkpt lat="49.97704" lon="2.36927">
        <ele>115.01</ele>
        <time>2022-06-15T14:59:09Z</time>
      </trkpt>
      <trkpt lat="49.97683" lon="2.36915">
        <ele>115.98</ele>
        <time>2022-06-15T14:59:25Z</time>
      </trkpt>
      <trkpt lat="49.97663" lon="2.36903">
        <ele>114.53</ele>
        <time>2022-06-15T14:59:40Z</time>
      </trkpt>
      <trkpt lat="49.97645" lon="2.36888">
        <ele>114.53</ele>
        <time>2022-06-15T14:59:55Z</time>
      </trkpt>
      <trkpt lat="49.97628" lon="2.36875">
        <ele>114.05</ele>
        <time>2022-06-15T15:00:09Z</time>
      </trkpt>
      <trkpt lat="49.97613" lon="2.36863">
        <ele>113.09</ele>
        <time>2022-06-15T15:00:22Z</time>
      </trkpt>
      <trkpt lat="49.97597" lon="2.36848">
        <ele>112.13</ele>
        <time>2022-06-15T15:00:36Z</time>
      </trkpt>
      <trkpt lat="49.9758" lon="2.36836">
        <ele>109.25</ele>
        <time>2022-06-15T15:00:50Z</time>
      </trkpt>
      <trkpt lat="49.97565" lon="2.36824">
        <ele>109.25</ele>
        <time>2022-06-15T15:01:02Z</time>
      </trkpt>
      <trkpt lat="49.97548" lon="2.36808">
        <ele>108.77</ele>
        <time>2022-06-15T15:01:16Z</time>
      </trkpt>
      <trkpt lat="49.9753" lon="2.36793">
        <ele>105.88</ele>
        <time>2022-06-15T15:01:32Z</time>
      </trkpt>
      <trkpt lat="49.97518" lon="2.36782">
        <ele>105.4</ele>
        <time>2022-06-15T15:01:43Z</time>
      </trkpt>
      <trkpt lat="49.975" lon="2.36766">
        <ele>109.25</ele>
        <time>2022-06-15T15:01:57Z</time>
      </trkpt>
      <trkpt lat="49.97486" lon="2.36752">
        <ele>110.21</ele>
        <time>2022-06-15T15:02:10Z</time>
      </trkpt>
      <trkpt lat="49.97471" lon="2.36738">
        <ele>111.65</ele>
        <time>2022-06-15T15:02:23Z</time>
      </trkpt>
      <trkpt lat="49.97458" lon="2.36729">
        <ele>111.17</ele>
        <time>2022-06-15T15:02:35Z</time>
      </trkpt>
      <trkpt lat="49.97446" lon="2.36716">
        <ele>110.69</ele>
        <time>2022-06-15T15:02:46Z</time>
      </trkpt>
      <trkpt lat="49.97426" lon="2.36702">
        <ele>112.61</ele>
        <time>2022-06-15T15:03:02Z</time>
      </trkpt>
      <trkpt lat="49.97409" lon="2.36686">
        <ele>113.09</ele>
        <time>2022-06-15T15:03:16Z</time>
      </trkpt>
      <trkpt lat="49.97393" lon="2.36671">
        <ele>113.57</ele>
        <time>2022-06-15T15:03:30Z</time>
      </trkpt>
      <trkpt lat="49.97374" lon="2.36653">
        <ele>113.57</ele>
        <time>2022-06-15T15:03:46Z</time>
      </trkpt>
      <trkpt lat="49.97356" lon="2.36634">
        <ele>114.05</ele>
        <time>2022-06-15T15:04:02Z</time>
      </trkpt>
      <trkpt lat="49.97339" lon="2.36615">
        <ele>114.05</ele>
        <time>2022-06-15T15:04:18Z</time>
      </trkpt>
      <trkpt lat="49.97322" lon="2.36597">
        <ele>114.05</ele>
        <time>2022-06-15T15:04:33Z</time>
      </trkpt>
      <trkpt lat="49.97305" lon="2.36582">
        <ele>113.57</ele>
        <time>2022-06-15T15:04:48Z</time>
      </trkpt>
      <trkpt lat="49.97288" lon="2.36572">
        <ele>114.53</ele>
        <time>2022-06-15T15:05:01Z</time>
      </trkpt>
      <trkpt lat="49.97269" lon="2.36561">
        <ele>115.01</ele>
        <time>2022-06-15T15:05:16Z</time>
      </trkpt>
      <trkpt lat="49.9725" lon="2.36551">
        <ele>114.53</ele>
        <time>2022-06-15T15:05:31Z</time>
      </trkpt>
      <trkpt lat="49.97234" lon="2.36543">
        <ele>114.53</ele>
        <time>2022-06-15T15:05:44Z</time>
      </trkpt>
      <trkpt lat="49.97215" lon="2.36534">
        <ele>114.05</ele>
        <time>2022-06-15T15:05:59Z</time>
      </trkpt>
      <trkpt lat="49.97198" lon="2.36525">
        <ele>113.09</ele>
        <time>2022-06-15T15:06:13Z</time>
      </trkpt>
      <trkpt lat="49.97179" lon="2.36514">
        <ele>112.13</ele>
        <time>2022-06-15T15:06:29Z</time>
      </trkpt>
      <trkpt lat="49.97162" lon="2.36502">
        <ele>111.17</ele>
        <time>2022-06-15T15:06:43Z</time>
      </trkpt>
      <trkpt lat="49.97145" lon="2.36485">
        <ele>110.69</ele>
        <time>2022-06-15T15:06:59Z</time>
      </trkpt>
      <trkpt lat="49.97135" lon="2.36479">
        <ele>111.17</ele>
        <time>2022-06-15T15:07:11Z</time>
      </trkpt>
      <trkpt lat="49.97136" lon="2.36478">
        <ele>111.65</ele>
        <time>2022-06-15T15:07:25Z</time>
      </trkpt>
      <trkpt lat="49.97136" lon="2.36478">
        <ele>112.13</ele>
        <time>2022-06-15T15:07:39Z</time>
      </trkpt>
      <trkpt lat="49.97133" lon="2.36473">
        <ele>113.09</ele>
        <time>2022-06-15T15:07:51Z</time>
      </trkpt>
      <trkpt lat="49.97124" lon="2.36463">
        <ele>114.05</ele>
        <time>2022-06-15T15:08:02Z</time>
      </trkpt>
      <trkpt lat="49.97113" lon="2.36449">
        <ele>114.53</ele>
        <time>2022-06-15T15:08:15Z</time>
      </trkpt>
      <trkpt lat="49.97102" lon="2.36435">
        <ele>113.09</ele>
        <time>2022-06-15T15:08:28Z</time>
      </trkpt>
      <trkpt lat="49.97092" lon="2.36424">
        <ele>112.61</ele>
        <time>2022-06-15T15:08:40Z</time>
      </trkpt>
      <trkpt lat="49.97085" lon="2.36413">
        <ele>110.69</ele>
        <time>2022-06-15T15:08:51Z</time>
      </trkpt>
      <trkpt lat="49.97074" lon="2.36402">
        <ele>108.77</ele>
        <time>2022-06-15T15:09:04Z</time>
      </trkpt>
      <trkpt lat="49.97066" lon="2.36392">
        <ele>108.77</ele>
        <time>2022-06-15T15:09:14Z</time>
      </trkpt>
      <trkpt lat="49.97055" lon="2.36378">
        <ele>108.29</ele>
        <time>2022-06-15T15:09:27Z</time>
      </trkpt>
      <trkpt lat="49.97044" lon="2.36366">
        <ele>108.29</ele>
        <time>2022-06-15T15:09:39Z</time>
      </trkpt>
      <trkpt lat="49.9703" lon="2.36355">
        <ele>110.21</ele>
        <time>2022-06-15T15:09:51Z</time>
      </trkpt>
      <trkpt lat="49.97019" lon="2.36345">
        <ele>111.65</ele>
        <time>2022-06-15T15:10:02Z</time>
      </trkpt>
      <trkpt lat="49.97007" lon="2.36334">
        <ele>112.13</ele>
        <time>2022-06-15T15:10:15Z</time>
      </trkpt>
      <trkpt lat="49.96997" lon="2.36326">
        <ele>112.61</ele>
        <time>2022-06-15T15:10:26Z</time>
      </trkpt>
      <trkpt lat="49.96983" lon="2.36316">
        <ele>113.09</ele>
        <time>2022-06-15T15:10:40Z</time>
      </trkpt>
      <trkpt lat="49.96973" lon="2.36307">
        <ele>113.09</ele>
        <time>2022-06-15T15:10:50Z</time>
      </trkpt>
      <trkpt lat="49.9696" lon="2.36297">
        <ele>114.53</ele>
        <time>2022-06-15T15:11:02Z</time>
      </trkpt>
      <trkpt lat="49.96953" lon="2.36289">
        <ele>114.53</ele>
        <time>2022-06-15T15:11:10Z</time>
      </trkpt>
      <trkpt lat="49.96942" lon="2.36279">
        <ele>114.53</ele>
        <time>2022-06-15T15:11:24Z</time>
      </trkpt>
      <trkpt lat="49.96934" lon="2.36272">
        <ele>113.57</ele>
        <time>2022-06-15T15:11:33Z</time>
      </trkpt>
      <trkpt lat="49.96923" lon="2.3626">
        <ele>113.09</ele>
        <time>2022-06-15T15:11:46Z</time>
      </trkpt>
      <trkpt lat="49.96917" lon="2.36252">
        <ele>113.09</ele>
        <time>2022-06-15T15:11:54Z</time>
      </trkpt>
      <trkpt lat="49.96906" lon="2.36239">
        <ele>111.65</ele>
        <time>2022-06-15T15:12:06Z</time>
      </trkpt>
      <trkpt lat="49.96898" lon="2.36231">
        <ele>111.65</ele>
        <time>2022-06-15T15:12:17Z</time>
      </trkpt>
      <trkpt lat="49.96887" lon="2.36223">
        <ele>113.09</ele>
        <time>2022-06-15T15:12:31Z</time>
      </trkpt>
      <trkpt lat="49.96876" lon="2.36216">
        <ele>112.13</ele>
        <time>2022-06-15T15:12:43Z</time>
      </trkpt>
      <trkpt lat="49.9687" lon="2.36211">
        <ele>111.65</ele>
        <time>2022-06-15T15:12:49Z</time>
      </trkpt>
      <trkpt lat="49.96853" lon="2.36197">
        <ele>113.57</ele>
        <time>2022-06-15T15:13:04Z</time>
      </trkpt>
      <trkpt lat="49.96848" lon="2.36191">
        <ele>114.05</ele>
        <time>2022-06-15T15:13:14Z</time>
      </trkpt>
      <trkpt lat="49.96836" lon="2.36183">
        <ele>115.01</ele>
        <time>2022-06-15T15:13:25Z</time>
      </trkpt>
      <trkpt lat="49.96823" lon="2.36172">
        <ele>115.01</ele>
        <time>2022-06-15T15:13:38Z</time>
      </trkpt>
      <trkpt lat="49.96807" lon="2.36159">
        <ele>115.01</ele>
        <time>2022-06-15T15:13:52Z</time>
      </trkpt>
      <trkpt lat="49.9679" lon="2.36149">
        <ele>115.01</ele>
        <time>2022-06-15T15:14:07Z</time>
      </trkpt>
      <trkpt lat="49.96777" lon="2.36145">
        <ele>114.05</ele>
        <time>2022-06-15T15:14:18Z</time>
      </trkpt>
      <trkpt lat="49.96758" lon="2.3614">
        <ele>113.57</ele>
        <time>2022-06-15T15:14:35Z</time>
      </trkpt>
      <trkpt lat="49.96741" lon="2.36139">
        <ele>113.09</ele>
        <time>2022-06-15T15:14:48Z</time>
      </trkpt>
      <trkpt lat="49.9672" lon="2.36137">
        <ele>112.13</ele>
        <time>2022-06-15T15:15:04Z</time>
      </trkpt>
      <trkpt lat="49.96702" lon="2.36135">
        <ele>112.13</ele>
        <time>2022-06-15T15:15:17Z</time>
      </trkpt>
      <trkpt lat="49.96681" lon="2.36129">
        <ele>111.65</ele>
        <time>2022-06-15T15:15:33Z</time>
      </trkpt>
      <trkpt lat="49.96662" lon="2.36124">
        <ele>112.13</ele>
        <time>2022-06-15T15:15:47Z</time>
      </trkpt>
      <trkpt lat="49.9664" lon="2.36117">
        <ele>111.17</ele>
        <time>2022-06-15T15:16:04Z</time>
      </trkpt>
      <trkpt lat="49.96619" lon="2.3611">
        <ele>111.17</ele>
        <time>2022-06-15T15:16:20Z</time>
      </trkpt>
      <trkpt lat="49.96599" lon="2.36105">
        <ele>110.69</ele>
        <time>2022-06-15T15:16:35Z</time>
      </trkpt>
      <trkpt lat="49.9658" lon="2.36099">
        <ele>110.69</ele>
        <time>2022-06-15T15:16:50Z</time>
      </trkpt>
      <trkpt lat="49.96558" lon="2.36093">
        <ele>111.17</ele>
        <time>2022-06-15T15:17:07Z</time>
      </trkpt>
      <trkpt lat="49.96537" lon="2.36086">
        <ele>111.65</ele>
        <time>2022-06-15T15:17:23Z</time>
      </trkpt>
      <trkpt lat="49.96513" lon="2.3608">
        <ele>112.13</ele>
        <time>2022-06-15T15:17:41Z</time>
      </trkpt>
      <trkpt lat="49.96492" lon="2.36074">
        <ele>112.13</ele>
        <time>2022-06-15T15:17:57Z</time>
      </trkpt>
      <trkpt lat="49.96473" lon="2.36068">
        <ele>112.13</ele>
        <time>2022-06-15T15:18:12Z</time>
      </trkpt>
      <trkpt lat="49.96457" lon="2.36062">
        <ele>112.13</ele>
        <time>2022-06-15T15:18:26Z</time>
      </trkpt>
      <trkpt lat="49.96437" lon="2.36058">
        <ele>112.61</ele>
        <time>2022-06-15T15:18:42Z</time>
      </trkpt>
      <trkpt lat="49.96415" lon="2.36052">
        <ele>113.57</ele>
        <time>2022-06-15T15:18:58Z</time>
      </trkpt>
      <trkpt lat="49.96393" lon="2.36045">
        <ele>113.57</ele>
        <time>2022-06-15T15:19:15Z</time>
      </trkpt>
      <trkpt lat="49.96373" lon="2.36038">
        <ele>113.57</ele>
        <time>2022-06-15T15:19:30Z</time>
      </trkpt>
      <trkpt lat="49.96352" lon="2.36032">
        <ele>113.57</ele>
        <time>2022-06-15T15:19:46Z</time>
      </trkpt>
      <trkpt lat="49.9633" lon="2.36027">
        <ele>114.05</ele>
        <time>2022-06-15T15:20:02Z</time>
      </trkpt>
      <trkpt lat="49.96311" lon="2.36021">
        <ele>113.57</ele>
        <time>2022-06-15T15:20:17Z</time>
      </trkpt>
      <trkpt lat="49.96292" lon="2.36016">
        <ele>113.57</ele>
        <time>2022-06-15T15:20:32Z</time>
      </trkpt>
      <trkpt lat="49.96274" lon="2.36011">
        <ele>114.53</ele>
        <time>2022-06-15T15:20:46Z</time>
      </trkpt>
      <trkpt lat="49.96253" lon="2.36004">
        <ele>114.05</ele>
        <time>2022-06-15T15:21:03Z</time>
      </trkpt>
      <trkpt lat="49.9624" lon="2.35998">
        <ele>113.09</ele>
        <time>2022-06-15T15:21:15Z</time>
      </trkpt>
      <trkpt lat="49.96236" lon="2.35994">
        <ele>114.05</ele>
        <time>2022-06-15T15:21:27Z</time>
      </trkpt>
      <trkpt lat="49.96235" lon="2.35992">
        <ele>114.05</ele>
        <time>2022-06-15T15:21:29Z</time>
      </trkpt>
      <trkpt lat="49.96224" lon="2.35983">
        <ele>113.09</ele>
        <time>2022-06-15T15:21:40Z</time>
      </trkpt>
      <trkpt lat="49.96208" lon="2.35985">
        <ele>113.09</ele>
        <time>2022-06-15T15:21:53Z</time>
      </trkpt>
      <trkpt lat="49.96183" lon="2.35987">
        <ele>114.05</ele>
        <time>2022-06-15T15:22:12Z</time>
      </trkpt>
      <trkpt lat="49.96164" lon="2.35988">
        <ele>114.53</ele>
        <time>2022-06-15T15:22:26Z</time>
      </trkpt>
      <trkpt lat="49.96144" lon="2.35992">
        <ele>114.05</ele>
        <time>2022-06-15T15:22:42Z</time>
      </trkpt>
      <trkpt lat="49.96123" lon="2.35995">
        <ele>114.53</ele>
        <time>2022-06-15T15:22:57Z</time>
      </trkpt>
      <trkpt lat="49.96104" lon="2.35997">
        <ele>114.53</ele>
        <time>2022-06-15T15:23:12Z</time>
      </trkpt>
      <trkpt lat="49.96084" lon="2.36">
        <ele>113.57</ele>
        <time>2022-06-15T15:23:27Z</time>
      </trkpt>
      <trkpt lat="49.96074" lon="2.36">
        <ele>113.57</ele>
        <time>2022-06-15T15:23:35Z</time>
      </trkpt>
      <trkpt lat="49.96056" lon="2.36004">
        <ele>113.57</ele>
        <time>2022-06-15T15:23:49Z</time>
      </trkpt>
      <trkpt lat="49.96035" lon="2.36008">
        <ele>112.61</ele>
        <time>2022-06-15T15:24:05Z</time>
      </trkpt>
      <trkpt lat="49.96016" lon="2.36012">
        <ele>111.65</ele>
        <time>2022-06-15T15:24:19Z</time>
      </trkpt>
      <trkpt lat="49.95995" lon="2.36024">
        <ele>113.09</ele>
        <time>2022-06-15T15:24:36Z</time>
      </trkpt>
      <trkpt lat="49.95976" lon="2.36036">
        <ele>112.61</ele>
        <time>2022-06-15T15:24:52Z</time>
      </trkpt>
      <trkpt lat="49.95956" lon="2.3605">
        <ele>112.13</ele>
        <time>2022-06-15T15:25:08Z</time>
      </trkpt>
      <trkpt lat="49.95938" lon="2.36062">
        <ele>112.13</ele>
        <time>2022-06-15T15:25:22Z</time>
      </trkpt>
      <trkpt lat="49.95917" lon="2.3607">
        <ele>107.81</ele>
        <time>2022-06-15T15:25:37Z</time>
      </trkpt>
      <trkpt lat="49.95899" lon="2.36079">
        <ele>106.84</ele>
        <time>2022-06-15T15:25:51Z</time>
      </trkpt>
      <trkpt lat="49.95878" lon="2.3609">
        <ele>104.44</ele>
        <time>2022-06-15T15:26:07Z</time>
      </trkpt>
      <trkpt lat="49.95853" lon="2.36104">
        <ele>103.96</ele>
        <time>2022-06-15T15:26:25Z</time>
      </trkpt>
      <trkpt lat="49.95829" lon="2.36114">
        <ele>102.04</ele>
        <time>2022-06-15T15:26:42Z</time>
      </trkpt>
      <trkpt lat="49.95807" lon="2.36121">
        <ele>101.56</ele>
        <time>2022-06-15T15:26:58Z</time>
      </trkpt>
      <trkpt lat="49.9579" lon="2.36119">
        <ele>100.11</ele>
        <time>2022-06-15T15:27:10Z</time>
      </trkpt>
      <trkpt lat="49.95773" lon="2.36111">
        <ele>98.19</ele>
        <time>2022-06-15T15:27:23Z</time>
      </trkpt>
      <trkpt lat="49.95756" lon="2.36104">
        <ele>96.75</ele>
        <time>2022-06-15T15:27:36Z</time>
      </trkpt>
      <trkpt lat="49.95747" lon="2.36103">
        <ele>96.27</ele>
        <time>2022-06-15T15:27:43Z</time>
      </trkpt>
      <trkpt lat="49.95728" lon="2.36093">
        <ele>94.83</ele>
        <time>2022-06-15T15:27:58Z</time>
      </trkpt>
      <trkpt lat="49.95704" lon="2.36081">
        <ele>95.31</ele>
        <time>2022-06-15T15:28:16Z</time>
      </trkpt>
      <trkpt lat="49.95685" lon="2.36073">
        <ele>94.83</ele>
        <time>2022-06-15T15:28:31Z</time>
      </trkpt>
      <trkpt lat="49.95662" lon="2.3607">
        <ele>94.35</ele>
        <time>2022-06-15T15:28:48Z</time>
      </trkpt>
      <trkpt lat="49.95643" lon="2.36071">
        <ele>93.39</ele>
        <time>2022-06-15T15:29:02Z</time>
      </trkpt>
      <trkpt lat="49.9562" lon="2.36069">
        <ele>91.46</ele>
        <time>2022-06-15T15:29:18Z</time>
      </trkpt>
      <trkpt lat="49.95599" lon="2.36068">
        <ele>92.9</ele>
        <time>2022-06-15T15:29:33Z</time>
      </trkpt>
      <trkpt lat="49.95582" lon="2.36067">
        <ele>93.39</ele>
        <time>2022-06-15T15:29:45Z</time>
      </trkpt>
      <trkpt lat="49.95565" lon="2.36062">
        <ele>94.35</ele>
        <time>2022-06-15T15:29:59Z</time>
      </trkpt>
      <trkpt lat="49.95546" lon="2.36055">
        <ele>93.87</ele>
        <time>2022-06-15T15:30:13Z</time>
      </trkpt>
      <trkpt lat="49.9553" lon="2.3605">
        <ele>93.39</ele>
        <time>2022-06-15T15:30:27Z</time>
      </trkpt>
      <trkpt lat="49.95511" lon="2.36046">
        <ele>93.39</ele>
        <time>2022-06-15T15:30:41Z</time>
      </trkpt>
      <trkpt lat="49.95494" lon="2.3604">
        <ele>93.87</ele>
        <time>2022-06-15T15:30:55Z</time>
      </trkpt>
      <trkpt lat="49.95473" lon="2.36036">
        <ele>94.35</ele>
        <time>2022-06-15T15:31:10Z</time>
      </trkpt>
      <trkpt lat="49.95453" lon="2.36032">
        <ele>96.27</ele>
        <time>2022-06-15T15:31:25Z</time>
      </trkpt>
      <trkpt lat="49.95436" lon="2.36028">
        <ele>96.27</ele>
        <time>2022-06-15T15:31:38Z</time>
      </trkpt>
      <trkpt lat="49.95417" lon="2.36025">
        <ele>95.31</ele>
        <time>2022-06-15T15:31:52Z</time>
      </trkpt>
      <trkpt lat="49.95394" lon="2.3602">
        <ele>96.75</ele>
        <time>2022-06-15T15:32:09Z</time>
      </trkpt>
      <trkpt lat="49.95374" lon="2.36006">
        <ele>97.23</ele>
        <time>2022-06-15T15:32:24Z</time>
      </trkpt>
      <trkpt lat="49.95359" lon="2.35983">
        <ele>98.67</ele>
        <time>2022-06-15T15:32:40Z</time>
      </trkpt>
      <trkpt lat="49.9535" lon="2.35962">
        <ele>96.75</ele>
        <time>2022-06-15T15:32:51Z</time>
      </trkpt>
      <trkpt lat="49.95337" lon="2.35942">
        <ele>95.31</ele>
        <time>2022-06-15T15:33:05Z</time>
      </trkpt>
      <trkpt lat="49.95324" lon="2.3592">
        <ele>94.83</ele>
        <time>2022-06-15T15:33:19Z</time>
      </trkpt>
      <trkpt lat="49.95308" lon="2.35898">
        <ele>94.83</ele>
        <time>2022-06-15T15:33:35Z</time>
      </trkpt>
      <trkpt lat="49.95295" lon="2.35877">
        <ele>95.79</ele>
        <time>2022-06-15T15:33:50Z</time>
      </trkpt>
      <trkpt lat="49.95281" lon="2.35866">
        <ele>96.27</ele>
        <time>2022-06-15T15:34:03Z</time>
      </trkpt>
      <trkpt lat="49.95267" lon="2.35851">
        <ele>95.79</ele>
        <time>2022-06-15T15:34:17Z</time>
      </trkpt>
      <trkpt lat="49.95254" lon="2.35836">
        <ele>95.31</ele>
        <time>2022-06-15T15:34:30Z</time>
      </trkpt>
      <trkpt lat="49.95242" lon="2.35823">
        <ele>95.79</ele>
        <time>2022-06-15T15:34:42Z</time>
      </trkpt>
      <trkpt lat="49.95229" lon="2.35812">
        <ele>94.83</ele>
        <time>2022-06-15T15:34:55Z</time>
      </trkpt>
      <trkpt lat="49.95216" lon="2.35804">
        <ele>93.39</ele>
        <time>2022-06-15T15:35:08Z</time>
      </trkpt>
      <trkpt lat="49.95214" lon="2.35803">
        <ele>93.87</ele>
        <time>2022-06-15T15:35:20Z</time>
      </trkpt>
      <trkpt lat="49.95212" lon="2.35801">
        <ele>93.87</ele>
        <time>2022-06-15T15:35:33Z</time>
      </trkpt>
      <trkpt lat="49.95205" lon="2.35801">
        <ele>93.87</ele>
        <time>2022-06-15T15:35:41Z</time>
      </trkpt>
      <trkpt lat="49.95195" lon="2.35813">
        <ele>93.87</ele>
        <time>2022-06-15T15:35:52Z</time>
      </trkpt>
      <trkpt lat="49.95186" lon="2.35825">
        <ele>93.87</ele>
        <time>2022-06-15T15:36:04Z</time>
      </trkpt>
      <trkpt lat="49.95183" lon="2.35826">
        <ele>92.9</ele>
        <time>2022-06-15T15:36:15Z</time>
      </trkpt>
      <trkpt lat="49.95184" lon="2.35826">
        <ele>92.42</ele>
        <time>2022-06-15T15:36:17Z</time>
      </trkpt>
    </trkseg>
  </trk>
</gpx>